<?xml version="1.0" encoding="UTF-8" standalone="no" ?>
<gpx xmlns="http://www.topografix.com/GPX/1/1" xmlns:xsi="http://www.w3.org/2001/XMLSchema-instance" xsi:schemaLocation="http://www.topografix.com/GPX/1/1 http://www.topografix.com/GPX/1/1/gpx.xsd" version="1.1" creator="VisuGPX - https://www.visugpx.com">
  <metadata>
    <name>M - 83 - AUPS</name>
    <desc><![CDATA[AUPS : la Périère, les grottes, Ste Magdeleine]]></desc>
  </metadata>
  <wpt lat="43.62611" lon="6.22584">
    <ele>543</ele>
    <name><![CDATA[Point de passage 1]]></name>
    <type><![CDATA[GENERIC]]></type>
  </wpt>
  <wpt lat="43.62639" lon="6.22518">
    <ele>542</ele>
    <name><![CDATA[Point de passage 2]]></name>
    <type><![CDATA[GENERIC]]></type>
  </wpt>
  <trk>
    <name><![CDATA[Aups rando mercredi ]]></name>
    <trkseg>
      <trkpt lat="43.62611" lon="6.22584">
        <ele>543</ele>
        <time>2026-02-18T13:03:55.000Z</time>
      </trkpt>
      <trkpt lat="43.62613" lon="6.22585">
        <ele>538</ele>
        <time>2026-02-18T13:03:58.000Z</time>
      </trkpt>
      <trkpt lat="43.62606" lon="6.22581">
        <ele>543</ele>
        <time>2026-02-18T13:04:37.000Z</time>
      </trkpt>
      <trkpt lat="43.626" lon="6.22569">
        <ele>541</ele>
        <time>2026-02-18T13:04:49.000Z</time>
      </trkpt>
      <trkpt lat="43.62596" lon="6.22558">
        <ele>542</ele>
        <time>2026-02-18T13:05:10.000Z</time>
      </trkpt>
      <trkpt lat="43.6259" lon="6.2255">
        <ele>542</ele>
        <time>2026-02-18T13:05:22.000Z</time>
      </trkpt>
      <trkpt lat="43.62582" lon="6.22554">
        <ele>542</ele>
        <time>2026-02-18T13:05:52.000Z</time>
      </trkpt>
      <trkpt lat="43.62572" lon="6.22559">
        <ele>542</ele>
        <time>2026-02-18T13:06:25.000Z</time>
      </trkpt>
      <trkpt lat="43.62563" lon="6.22565">
        <ele>542</ele>
        <time>2026-02-18T13:06:34.000Z</time>
      </trkpt>
      <trkpt lat="43.62555" lon="6.22572">
        <ele>542</ele>
        <time>2026-02-18T13:06:43.000Z</time>
      </trkpt>
      <trkpt lat="43.62547" lon="6.22579">
        <ele>542</ele>
        <time>2026-02-18T13:06:52.000Z</time>
      </trkpt>
      <trkpt lat="43.62538" lon="6.22588">
        <ele>542</ele>
        <time>2026-02-18T13:07:01.000Z</time>
      </trkpt>
      <trkpt lat="43.6253" lon="6.22595">
        <ele>541</ele>
        <time>2026-02-18T13:07:10.000Z</time>
      </trkpt>
      <trkpt lat="43.62521" lon="6.22603">
        <ele>541</ele>
        <time>2026-02-18T13:07:19.000Z</time>
      </trkpt>
      <trkpt lat="43.62512" lon="6.2261">
        <ele>539</ele>
        <time>2026-02-18T13:07:28.000Z</time>
      </trkpt>
      <trkpt lat="43.62503" lon="6.22613">
        <ele>538</ele>
        <time>2026-02-18T13:07:37.000Z</time>
      </trkpt>
      <trkpt lat="43.62493" lon="6.22619">
        <ele>536</ele>
        <time>2026-02-18T13:07:46.000Z</time>
      </trkpt>
      <trkpt lat="43.62484" lon="6.22626">
        <ele>535</ele>
        <time>2026-02-18T13:07:55.000Z</time>
      </trkpt>
      <trkpt lat="43.62475" lon="6.22634">
        <ele>534</ele>
        <time>2026-02-18T13:08:04.000Z</time>
      </trkpt>
      <trkpt lat="43.62466" lon="6.22643">
        <ele>533</ele>
        <time>2026-02-18T13:08:13.000Z</time>
      </trkpt>
      <trkpt lat="43.62458" lon="6.2265">
        <ele>533</ele>
        <time>2026-02-18T13:08:22.000Z</time>
      </trkpt>
      <trkpt lat="43.62448" lon="6.22659">
        <ele>532</ele>
        <time>2026-02-18T13:08:31.000Z</time>
      </trkpt>
      <trkpt lat="43.62446" lon="6.22673">
        <ele>532</ele>
        <time>2026-02-18T13:08:40.000Z</time>
      </trkpt>
      <trkpt lat="43.6245" lon="6.22686">
        <ele>533</ele>
        <time>2026-02-18T13:08:49.000Z</time>
      </trkpt>
      <trkpt lat="43.62455" lon="6.22698">
        <ele>532</ele>
        <time>2026-02-18T13:09:01.000Z</time>
      </trkpt>
      <trkpt lat="43.62462" lon="6.2271">
        <ele>532</ele>
        <time>2026-02-18T13:09:10.000Z</time>
      </trkpt>
      <trkpt lat="43.6247" lon="6.22721">
        <ele>532</ele>
        <time>2026-02-18T13:09:19.000Z</time>
      </trkpt>
      <trkpt lat="43.62477" lon="6.22734">
        <ele>532</ele>
        <time>2026-02-18T13:09:28.000Z</time>
      </trkpt>
      <trkpt lat="43.62483" lon="6.22745">
        <ele>532</ele>
        <time>2026-02-18T13:09:37.000Z</time>
      </trkpt>
      <trkpt lat="43.62491" lon="6.22754">
        <ele>533</ele>
        <time>2026-02-18T13:09:46.000Z</time>
      </trkpt>
      <trkpt lat="43.62499" lon="6.22763">
        <ele>534</ele>
        <time>2026-02-18T13:09:55.000Z</time>
      </trkpt>
      <trkpt lat="43.62509" lon="6.22772">
        <ele>534</ele>
        <time>2026-02-18T13:10:04.000Z</time>
      </trkpt>
      <trkpt lat="43.62519" lon="6.22779">
        <ele>535</ele>
        <time>2026-02-18T13:10:13.000Z</time>
      </trkpt>
      <trkpt lat="43.62527" lon="6.22786">
        <ele>535</ele>
        <time>2026-02-18T13:10:22.000Z</time>
      </trkpt>
      <trkpt lat="43.62535" lon="6.22795">
        <ele>536</ele>
        <time>2026-02-18T13:10:31.000Z</time>
      </trkpt>
      <trkpt lat="43.62544" lon="6.22802">
        <ele>537</ele>
        <time>2026-02-18T13:10:40.000Z</time>
      </trkpt>
      <trkpt lat="43.62552" lon="6.22809">
        <ele>537</ele>
        <time>2026-02-18T13:10:49.000Z</time>
      </trkpt>
      <trkpt lat="43.62561" lon="6.22817">
        <ele>538</ele>
        <time>2026-02-18T13:10:58.000Z</time>
      </trkpt>
      <trkpt lat="43.6257" lon="6.22826">
        <ele>538</ele>
        <time>2026-02-18T13:11:07.000Z</time>
      </trkpt>
      <trkpt lat="43.62578" lon="6.22835">
        <ele>538</ele>
        <time>2026-02-18T13:11:16.000Z</time>
      </trkpt>
      <trkpt lat="43.62586" lon="6.22843">
        <ele>538</ele>
        <time>2026-02-18T13:11:25.000Z</time>
      </trkpt>
      <trkpt lat="43.62593" lon="6.22855">
        <ele>539</ele>
        <time>2026-02-18T13:11:34.000Z</time>
      </trkpt>
      <trkpt lat="43.62599" lon="6.22867">
        <ele>539</ele>
        <time>2026-02-18T13:11:43.000Z</time>
      </trkpt>
      <trkpt lat="43.62605" lon="6.22879">
        <ele>540</ele>
        <time>2026-02-18T13:11:52.000Z</time>
      </trkpt>
      <trkpt lat="43.62612" lon="6.2289">
        <ele>540</ele>
        <time>2026-02-18T13:12:01.000Z</time>
      </trkpt>
      <trkpt lat="43.62619" lon="6.22903">
        <ele>541</ele>
        <time>2026-02-18T13:12:10.000Z</time>
      </trkpt>
      <trkpt lat="43.62626" lon="6.22914">
        <ele>541</ele>
        <time>2026-02-18T13:12:19.000Z</time>
      </trkpt>
      <trkpt lat="43.62635" lon="6.22923">
        <ele>541</ele>
        <time>2026-02-18T13:12:28.000Z</time>
      </trkpt>
      <trkpt lat="43.62642" lon="6.22933">
        <ele>542</ele>
        <time>2026-02-18T13:12:37.000Z</time>
      </trkpt>
      <trkpt lat="43.62648" lon="6.22942">
        <ele>543</ele>
        <time>2026-02-18T13:12:46.000Z</time>
      </trkpt>
      <trkpt lat="43.62655" lon="6.22953">
        <ele>544</ele>
        <time>2026-02-18T13:12:55.000Z</time>
      </trkpt>
      <trkpt lat="43.62662" lon="6.22962">
        <ele>545</ele>
        <time>2026-02-18T13:13:04.000Z</time>
      </trkpt>
      <trkpt lat="43.62668" lon="6.22974">
        <ele>546</ele>
        <time>2026-02-18T13:13:16.000Z</time>
      </trkpt>
      <trkpt lat="43.62672" lon="6.22987">
        <ele>548</ele>
        <time>2026-02-18T13:13:25.000Z</time>
      </trkpt>
      <trkpt lat="43.62675" lon="6.23002">
        <ele>549</ele>
        <time>2026-02-18T13:13:34.000Z</time>
      </trkpt>
      <trkpt lat="43.6268" lon="6.23015">
        <ele>551</ele>
        <time>2026-02-18T13:13:46.000Z</time>
      </trkpt>
      <trkpt lat="43.62687" lon="6.23026">
        <ele>553</ele>
        <time>2026-02-18T13:13:55.000Z</time>
      </trkpt>
      <trkpt lat="43.62694" lon="6.23036">
        <ele>554</ele>
        <time>2026-02-18T13:14:04.000Z</time>
      </trkpt>
      <trkpt lat="43.627" lon="6.23044">
        <ele>555</ele>
        <time>2026-02-18T13:14:13.000Z</time>
      </trkpt>
      <trkpt lat="43.62709" lon="6.23047">
        <ele>555</ele>
        <time>2026-02-18T13:14:25.000Z</time>
      </trkpt>
      <trkpt lat="43.62717" lon="6.23055">
        <ele>556</ele>
        <time>2026-02-18T13:14:34.000Z</time>
      </trkpt>
      <trkpt lat="43.62724" lon="6.23064">
        <ele>557</ele>
        <time>2026-02-18T13:14:43.000Z</time>
      </trkpt>
      <trkpt lat="43.62732" lon="6.23074">
        <ele>558</ele>
        <time>2026-02-18T13:14:55.000Z</time>
      </trkpt>
      <trkpt lat="43.6274" lon="6.23083">
        <ele>560</ele>
        <time>2026-02-18T13:15:07.000Z</time>
      </trkpt>
      <trkpt lat="43.62746" lon="6.23094">
        <ele>562</ele>
        <time>2026-02-18T13:15:19.000Z</time>
      </trkpt>
      <trkpt lat="43.62756" lon="6.23098">
        <ele>564</ele>
        <time>2026-02-18T13:15:31.000Z</time>
      </trkpt>
      <trkpt lat="43.62765" lon="6.23103">
        <ele>566</ele>
        <time>2026-02-18T13:15:40.000Z</time>
      </trkpt>
      <trkpt lat="43.62775" lon="6.23108">
        <ele>567</ele>
        <time>2026-02-18T13:15:52.000Z</time>
      </trkpt>
      <trkpt lat="43.62785" lon="6.23112">
        <ele>568</ele>
        <time>2026-02-18T13:16:04.000Z</time>
      </trkpt>
      <trkpt lat="43.62792" lon="6.23119">
        <ele>570</ele>
        <time>2026-02-18T13:16:19.000Z</time>
      </trkpt>
      <trkpt lat="43.62798" lon="6.23128">
        <ele>571</ele>
        <time>2026-02-18T13:16:34.000Z</time>
      </trkpt>
      <trkpt lat="43.62803" lon="6.23139">
        <ele>573</ele>
        <time>2026-02-18T13:16:46.000Z</time>
      </trkpt>
      <trkpt lat="43.62805" lon="6.23152">
        <ele>575</ele>
        <time>2026-02-18T13:17:01.000Z</time>
      </trkpt>
      <trkpt lat="43.62807" lon="6.23165">
        <ele>576</ele>
        <time>2026-02-18T13:17:19.000Z</time>
      </trkpt>
      <trkpt lat="43.62809" lon="6.23179">
        <ele>579</ele>
        <time>2026-02-18T13:17:43.000Z</time>
      </trkpt>
      <trkpt lat="43.6281" lon="6.23192">
        <ele>581</ele>
        <time>2026-02-18T13:18:01.000Z</time>
      </trkpt>
      <trkpt lat="43.6281" lon="6.23206">
        <ele>584</ele>
        <time>2026-02-18T13:18:16.000Z</time>
      </trkpt>
      <trkpt lat="43.62811" lon="6.2322">
        <ele>587</ele>
        <time>2026-02-18T13:18:31.000Z</time>
      </trkpt>
      <trkpt lat="43.62809" lon="6.23234">
        <ele>590</ele>
        <time>2026-02-18T13:18:46.000Z</time>
      </trkpt>
      <trkpt lat="43.62807" lon="6.23246">
        <ele>594</ele>
        <time>2026-02-18T13:18:58.000Z</time>
      </trkpt>
      <trkpt lat="43.62807" lon="6.23257">
        <ele>597</ele>
        <time>2026-02-18T13:20:43.000Z</time>
      </trkpt>
      <trkpt lat="43.62814" lon="6.23259">
        <ele>600</ele>
        <time>2026-02-18T13:21:01.000Z</time>
      </trkpt>
      <trkpt lat="43.62823" lon="6.23263">
        <ele>603</ele>
        <time>2026-02-18T13:21:16.000Z</time>
      </trkpt>
      <trkpt lat="43.62833" lon="6.23266">
        <ele>604</ele>
        <time>2026-02-18T13:21:40.000Z</time>
      </trkpt>
      <trkpt lat="43.62842" lon="6.23267">
        <ele>606</ele>
        <time>2026-02-18T13:23:52.000Z</time>
      </trkpt>
      <trkpt lat="43.62851" lon="6.23262">
        <ele>607</ele>
        <time>2026-02-18T13:24:10.000Z</time>
      </trkpt>
      <trkpt lat="43.62859" lon="6.23259">
        <ele>609</ele>
        <time>2026-02-18T13:24:28.000Z</time>
      </trkpt>
      <trkpt lat="43.62867" lon="6.23261">
        <ele>610</ele>
        <time>2026-02-18T13:24:46.000Z</time>
      </trkpt>
      <trkpt lat="43.62874" lon="6.23269">
        <ele>611</ele>
        <time>2026-02-18T13:26:19.000Z</time>
      </trkpt>
      <trkpt lat="43.62881" lon="6.23283">
        <ele>611</ele>
        <time>2026-02-18T13:26:31.000Z</time>
      </trkpt>
      <trkpt lat="43.62885" lon="6.2329">
        <ele>611</ele>
        <time>2026-02-18T13:26:34.000Z</time>
      </trkpt>
      <trkpt lat="43.62875" lon="6.23272">
        <ele>611</ele>
        <time>2026-02-18T13:27:45.000Z</time>
      </trkpt>
      <trkpt lat="43.62873" lon="6.2326">
        <ele>612</ele>
        <time>2026-02-18T13:28:01.000Z</time>
      </trkpt>
      <trkpt lat="43.62881" lon="6.23258">
        <ele>612</ele>
        <time>2026-02-18T13:28:10.000Z</time>
      </trkpt>
      <trkpt lat="43.62887" lon="6.2325">
        <ele>613</ele>
        <time>2026-02-18T13:28:37.000Z</time>
      </trkpt>
      <trkpt lat="43.62896" lon="6.23251">
        <ele>613</ele>
        <time>2026-02-18T13:28:55.000Z</time>
      </trkpt>
      <trkpt lat="43.62903" lon="6.23258">
        <ele>613</ele>
        <time>2026-02-18T13:29:22.000Z</time>
      </trkpt>
      <trkpt lat="43.62903" lon="6.23266">
        <ele>613</ele>
        <time>2026-02-18T13:29:49.000Z</time>
      </trkpt>
      <trkpt lat="43.62906" lon="6.23248">
        <ele>611</ele>
        <time>2026-02-18T13:32:16.000Z</time>
      </trkpt>
      <trkpt lat="43.62904" lon="6.23251">
        <ele>610</ele>
        <time>2026-02-18T13:32:52.000Z</time>
      </trkpt>
      <trkpt lat="43.62911" lon="6.23251">
        <ele>609</ele>
        <time>2026-02-18T13:33:22.000Z</time>
      </trkpt>
      <trkpt lat="43.6292" lon="6.23253">
        <ele>608</ele>
        <time>2026-02-18T13:33:34.000Z</time>
      </trkpt>
      <trkpt lat="43.62929" lon="6.23253">
        <ele>608</ele>
        <time>2026-02-18T13:33:46.000Z</time>
      </trkpt>
      <trkpt lat="43.62938" lon="6.23249">
        <ele>608</ele>
        <time>2026-02-18T13:33:55.000Z</time>
      </trkpt>
      <trkpt lat="43.62948" lon="6.23243">
        <ele>607</ele>
        <time>2026-02-18T13:34:04.000Z</time>
      </trkpt>
      <trkpt lat="43.62956" lon="6.23237">
        <ele>607</ele>
        <time>2026-02-18T13:34:13.000Z</time>
      </trkpt>
      <trkpt lat="43.6296" lon="6.23223">
        <ele>608</ele>
        <time>2026-02-18T13:34:22.000Z</time>
      </trkpt>
      <trkpt lat="43.62966" lon="6.23209">
        <ele>610</ele>
        <time>2026-02-18T13:34:31.000Z</time>
      </trkpt>
      <trkpt lat="43.62973" lon="6.23197">
        <ele>611</ele>
        <time>2026-02-18T13:34:43.000Z</time>
      </trkpt>
      <trkpt lat="43.62982" lon="6.23194">
        <ele>613</ele>
        <time>2026-02-18T13:35:01.000Z</time>
      </trkpt>
      <trkpt lat="43.62991" lon="6.23192">
        <ele>615</ele>
        <time>2026-02-18T13:35:22.000Z</time>
      </trkpt>
      <trkpt lat="43.62999" lon="6.23197">
        <ele>615</ele>
        <time>2026-02-18T13:35:40.000Z</time>
      </trkpt>
      <trkpt lat="43.63001" lon="6.2321">
        <ele>615</ele>
        <time>2026-02-18T13:35:46.000Z</time>
      </trkpt>
      <trkpt lat="43.63001" lon="6.23223">
        <ele>616</ele>
        <time>2026-02-18T13:36:25.000Z</time>
      </trkpt>
      <trkpt lat="43.62994" lon="6.23226">
        <ele>617</ele>
        <time>2026-02-18T13:36:37.000Z</time>
      </trkpt>
      <trkpt lat="43.62995" lon="6.23215">
        <ele>618</ele>
        <time>2026-02-18T13:36:55.000Z</time>
      </trkpt>
      <trkpt lat="43.63004" lon="6.23206">
        <ele>619</ele>
        <time>2026-02-18T13:37:01.000Z</time>
      </trkpt>
      <trkpt lat="43.63014" lon="6.23194">
        <ele>620</ele>
        <time>2026-02-18T13:39:12.000Z</time>
      </trkpt>
      <trkpt lat="43.63008" lon="6.23198">
        <ele>620</ele>
        <time>2026-02-18T13:41:25.000Z</time>
      </trkpt>
      <trkpt lat="43.63002" lon="6.23203">
        <ele>619</ele>
        <time>2026-02-18T13:41:31.000Z</time>
      </trkpt>
      <trkpt lat="43.63005" lon="6.23186">
        <ele>619</ele>
        <time>2026-02-18T13:41:37.000Z</time>
      </trkpt>
      <trkpt lat="43.63011" lon="6.23169">
        <ele>619</ele>
        <time>2026-02-18T13:41:40.000Z</time>
      </trkpt>
      <trkpt lat="43.6302" lon="6.23164">
        <ele>619</ele>
        <time>2026-02-18T13:42:01.000Z</time>
      </trkpt>
      <trkpt lat="43.6303" lon="6.23183">
        <ele>618</ele>
        <time>2026-02-18T13:42:10.000Z</time>
      </trkpt>
      <trkpt lat="43.63041" lon="6.2322">
        <ele>618</ele>
        <time>2026-02-18T13:42:13.000Z</time>
      </trkpt>
      <trkpt lat="43.63035" lon="6.23228">
        <ele>617</ele>
        <time>2026-02-18T13:42:16.000Z</time>
      </trkpt>
      <trkpt lat="43.63024" lon="6.23212">
        <ele>618</ele>
        <time>2026-02-18T13:42:19.000Z</time>
      </trkpt>
      <trkpt lat="43.63017" lon="6.23198">
        <ele>619</ele>
        <time>2026-02-18T13:42:22.000Z</time>
      </trkpt>
      <trkpt lat="43.63012" lon="6.23186">
        <ele>619</ele>
        <time>2026-02-18T13:42:40.000Z</time>
      </trkpt>
      <trkpt lat="43.63012" lon="6.23171">
        <ele>619</ele>
        <time>2026-02-18T13:42:52.000Z</time>
      </trkpt>
      <trkpt lat="43.6301" lon="6.23159">
        <ele>619</ele>
        <time>2026-02-18T13:43:22.000Z</time>
      </trkpt>
      <trkpt lat="43.63016" lon="6.23153">
        <ele>618</ele>
        <time>2026-02-18T13:44:25.000Z</time>
      </trkpt>
      <trkpt lat="43.63022" lon="6.23158">
        <ele>617</ele>
        <time>2026-02-18T13:44:55.000Z</time>
      </trkpt>
      <trkpt lat="43.63015" lon="6.23156">
        <ele>615</ele>
        <time>2026-02-18T13:45:19.000Z</time>
      </trkpt>
      <trkpt lat="43.63006" lon="6.23158">
        <ele>614</ele>
        <time>2026-02-18T13:46:01.000Z</time>
      </trkpt>
      <trkpt lat="43.62997" lon="6.23159">
        <ele>613</ele>
        <time>2026-02-18T13:46:16.000Z</time>
      </trkpt>
      <trkpt lat="43.62988" lon="6.23165">
        <ele>613</ele>
        <time>2026-02-18T13:46:40.000Z</time>
      </trkpt>
      <trkpt lat="43.62982" lon="6.23176">
        <ele>612</ele>
        <time>2026-02-18T13:46:49.000Z</time>
      </trkpt>
      <trkpt lat="43.62976" lon="6.23189">
        <ele>611</ele>
        <time>2026-02-18T13:47:16.000Z</time>
      </trkpt>
      <trkpt lat="43.6297" lon="6.23201">
        <ele>610</ele>
        <time>2026-02-18T13:47:31.000Z</time>
      </trkpt>
      <trkpt lat="43.62964" lon="6.23211">
        <ele>609</ele>
        <time>2026-02-18T13:47:43.000Z</time>
      </trkpt>
      <trkpt lat="43.62958" lon="6.2322">
        <ele>609</ele>
        <time>2026-02-18T13:47:52.000Z</time>
      </trkpt>
      <trkpt lat="43.62954" lon="6.23232">
        <ele>609</ele>
        <time>2026-02-18T13:48:01.000Z</time>
      </trkpt>
      <trkpt lat="43.62956" lon="6.23246">
        <ele>609</ele>
        <time>2026-02-18T13:48:13.000Z</time>
      </trkpt>
      <trkpt lat="43.62959" lon="6.23258">
        <ele>610</ele>
        <time>2026-02-18T13:48:25.000Z</time>
      </trkpt>
      <trkpt lat="43.62961" lon="6.23271">
        <ele>612</ele>
        <time>2026-02-18T13:48:37.000Z</time>
      </trkpt>
      <trkpt lat="43.62961" lon="6.23284">
        <ele>614</ele>
        <time>2026-02-18T13:48:49.000Z</time>
      </trkpt>
      <trkpt lat="43.62963" lon="6.23296">
        <ele>617</ele>
        <time>2026-02-18T13:49:04.000Z</time>
      </trkpt>
      <trkpt lat="43.62964" lon="6.23309">
        <ele>619</ele>
        <time>2026-02-18T13:49:16.000Z</time>
      </trkpt>
      <trkpt lat="43.62966" lon="6.23321">
        <ele>621</ele>
        <time>2026-02-18T13:49:31.000Z</time>
      </trkpt>
      <trkpt lat="43.62963" lon="6.23333">
        <ele>623</ele>
        <time>2026-02-18T13:49:40.000Z</time>
      </trkpt>
      <trkpt lat="43.62962" lon="6.23345">
        <ele>625</ele>
        <time>2026-02-18T13:49:58.000Z</time>
      </trkpt>
      <trkpt lat="43.62955" lon="6.23354">
        <ele>627</ele>
        <time>2026-02-18T13:50:16.000Z</time>
      </trkpt>
      <trkpt lat="43.62952" lon="6.23366">
        <ele>630</ele>
        <time>2026-02-18T13:50:31.000Z</time>
      </trkpt>
      <trkpt lat="43.62954" lon="6.23377">
        <ele>632</ele>
        <time>2026-02-18T13:50:46.000Z</time>
      </trkpt>
      <trkpt lat="43.62955" lon="6.2339">
        <ele>635</ele>
        <time>2026-02-18T13:51:04.000Z</time>
      </trkpt>
      <trkpt lat="43.62952" lon="6.23403">
        <ele>637</ele>
        <time>2026-02-18T13:51:16.000Z</time>
      </trkpt>
      <trkpt lat="43.62948" lon="6.23416">
        <ele>639</ele>
        <time>2026-02-18T13:51:31.000Z</time>
      </trkpt>
      <trkpt lat="43.62943" lon="6.23428">
        <ele>641</ele>
        <time>2026-02-18T13:51:43.000Z</time>
      </trkpt>
      <trkpt lat="43.62939" lon="6.2344">
        <ele>642</ele>
        <time>2026-02-18T13:52:01.000Z</time>
      </trkpt>
      <trkpt lat="43.62938" lon="6.23452">
        <ele>643</ele>
        <time>2026-02-18T13:52:13.000Z</time>
      </trkpt>
      <trkpt lat="43.62939" lon="6.23465">
        <ele>644</ele>
        <time>2026-02-18T13:52:25.000Z</time>
      </trkpt>
      <trkpt lat="43.62941" lon="6.23477">
        <ele>645</ele>
        <time>2026-02-18T13:53:04.000Z</time>
      </trkpt>
      <trkpt lat="43.62941" lon="6.2349">
        <ele>645</ele>
        <time>2026-02-18T13:54:25.000Z</time>
      </trkpt>
      <trkpt lat="43.62945" lon="6.23504">
        <ele>646</ele>
        <time>2026-02-18T13:54:40.000Z</time>
      </trkpt>
      <trkpt lat="43.62951" lon="6.23515">
        <ele>647</ele>
        <time>2026-02-18T13:54:58.000Z</time>
      </trkpt>
      <trkpt lat="43.62957" lon="6.23523">
        <ele>648</ele>
        <time>2026-02-18T13:55:07.000Z</time>
      </trkpt>
      <trkpt lat="43.62964" lon="6.23534">
        <ele>649</ele>
        <time>2026-02-18T13:55:25.000Z</time>
      </trkpt>
      <trkpt lat="43.62972" lon="6.23542">
        <ele>650</ele>
        <time>2026-02-18T13:55:37.000Z</time>
      </trkpt>
      <trkpt lat="43.6298" lon="6.2355">
        <ele>652</ele>
        <time>2026-02-18T13:55:49.000Z</time>
      </trkpt>
      <trkpt lat="43.62985" lon="6.23561">
        <ele>653</ele>
        <time>2026-02-18T13:56:01.000Z</time>
      </trkpt>
      <trkpt lat="43.62991" lon="6.23572">
        <ele>655</ele>
        <time>2026-02-18T13:56:16.000Z</time>
      </trkpt>
      <trkpt lat="43.62999" lon="6.23581">
        <ele>656</ele>
        <time>2026-02-18T13:56:40.000Z</time>
      </trkpt>
      <trkpt lat="43.63006" lon="6.2359">
        <ele>658</ele>
        <time>2026-02-18T13:56:55.000Z</time>
      </trkpt>
      <trkpt lat="43.63013" lon="6.23598">
        <ele>659</ele>
        <time>2026-02-18T13:57:07.000Z</time>
      </trkpt>
      <trkpt lat="43.63021" lon="6.23607">
        <ele>660</ele>
        <time>2026-02-18T13:57:19.000Z</time>
      </trkpt>
      <trkpt lat="43.63029" lon="6.23618">
        <ele>661</ele>
        <time>2026-02-18T13:57:40.000Z</time>
      </trkpt>
      <trkpt lat="43.63038" lon="6.23627">
        <ele>663</ele>
        <time>2026-02-18T13:57:52.000Z</time>
      </trkpt>
      <trkpt lat="43.63048" lon="6.23631">
        <ele>665</ele>
        <time>2026-02-18T13:58:07.000Z</time>
      </trkpt>
      <trkpt lat="43.63057" lon="6.23634">
        <ele>667</ele>
        <time>2026-02-18T13:58:19.000Z</time>
      </trkpt>
      <trkpt lat="43.63067" lon="6.23637">
        <ele>669</ele>
        <time>2026-02-18T13:58:28.000Z</time>
      </trkpt>
      <trkpt lat="43.63075" lon="6.23642">
        <ele>670</ele>
        <time>2026-02-18T13:58:46.000Z</time>
      </trkpt>
      <trkpt lat="43.63084" lon="6.23645">
        <ele>671</ele>
        <time>2026-02-18T13:59:01.000Z</time>
      </trkpt>
      <trkpt lat="43.63092" lon="6.2365">
        <ele>672</ele>
        <time>2026-02-18T13:59:10.000Z</time>
      </trkpt>
      <trkpt lat="43.63101" lon="6.23655">
        <ele>674</ele>
        <time>2026-02-18T13:59:28.000Z</time>
      </trkpt>
      <trkpt lat="43.63109" lon="6.23665">
        <ele>676</ele>
        <time>2026-02-18T13:59:37.000Z</time>
      </trkpt>
      <trkpt lat="43.63116" lon="6.23676">
        <ele>678</ele>
        <time>2026-02-18T13:59:55.000Z</time>
      </trkpt>
      <trkpt lat="43.63121" lon="6.23688">
        <ele>681</ele>
        <time>2026-02-18T14:00:07.000Z</time>
      </trkpt>
      <trkpt lat="43.63126" lon="6.23699">
        <ele>684</ele>
        <time>2026-02-18T14:00:28.000Z</time>
      </trkpt>
      <trkpt lat="43.63128" lon="6.23712">
        <ele>687</ele>
        <time>2026-02-18T14:00:52.000Z</time>
      </trkpt>
      <trkpt lat="43.63133" lon="6.23723">
        <ele>690</ele>
        <time>2026-02-18T14:01:13.000Z</time>
      </trkpt>
      <trkpt lat="43.6314" lon="6.2373">
        <ele>692</ele>
        <time>2026-02-18T14:01:40.000Z</time>
      </trkpt>
      <trkpt lat="43.63147" lon="6.2373">
        <ele>693</ele>
        <time>2026-02-18T14:02:31.000Z</time>
      </trkpt>
      <trkpt lat="43.63145" lon="6.23741">
        <ele>694</ele>
        <time>2026-02-18T14:03:31.000Z</time>
      </trkpt>
      <trkpt lat="43.63137" lon="6.23746">
        <ele>695</ele>
        <time>2026-02-18T14:03:43.000Z</time>
      </trkpt>
      <trkpt lat="43.63128" lon="6.23744">
        <ele>696</ele>
        <time>2026-02-18T14:03:55.000Z</time>
      </trkpt>
      <trkpt lat="43.63119" lon="6.2374">
        <ele>697</ele>
        <time>2026-02-18T14:04:04.000Z</time>
      </trkpt>
      <trkpt lat="43.63109" lon="6.23735">
        <ele>697</ele>
        <time>2026-02-18T14:04:13.000Z</time>
      </trkpt>
      <trkpt lat="43.63099" lon="6.2373">
        <ele>698</ele>
        <time>2026-02-18T14:04:22.000Z</time>
      </trkpt>
      <trkpt lat="43.63089" lon="6.23726">
        <ele>698</ele>
        <time>2026-02-18T14:04:31.000Z</time>
      </trkpt>
      <trkpt lat="43.6308" lon="6.23724">
        <ele>699</ele>
        <time>2026-02-18T14:04:40.000Z</time>
      </trkpt>
      <trkpt lat="43.63069" lon="6.23723">
        <ele>699</ele>
        <time>2026-02-18T14:04:49.000Z</time>
      </trkpt>
      <trkpt lat="43.63059" lon="6.23722">
        <ele>699</ele>
        <time>2026-02-18T14:04:58.000Z</time>
      </trkpt>
      <trkpt lat="43.63048" lon="6.23722">
        <ele>699</ele>
        <time>2026-02-18T14:05:07.000Z</time>
      </trkpt>
      <trkpt lat="43.63037" lon="6.23723">
        <ele>700</ele>
        <time>2026-02-18T14:05:19.000Z</time>
      </trkpt>
      <trkpt lat="43.63027" lon="6.23725">
        <ele>701</ele>
        <time>2026-02-18T14:05:28.000Z</time>
      </trkpt>
      <trkpt lat="43.6302" lon="6.23727">
        <ele>703</ele>
        <time>2026-02-18T14:05:37.000Z</time>
      </trkpt>
      <trkpt lat="43.63022" lon="6.23737">
        <ele>704</ele>
        <time>2026-02-18T14:07:01.000Z</time>
      </trkpt>
      <trkpt lat="43.63029" lon="6.23745">
        <ele>706</ele>
        <time>2026-02-18T14:07:16.000Z</time>
      </trkpt>
      <trkpt lat="43.63034" lon="6.23756">
        <ele>708</ele>
        <time>2026-02-18T14:07:37.000Z</time>
      </trkpt>
      <trkpt lat="43.6304" lon="6.23768">
        <ele>710</ele>
        <time>2026-02-18T14:08:19.000Z</time>
      </trkpt>
      <trkpt lat="43.63045" lon="6.23779">
        <ele>712</ele>
        <time>2026-02-18T14:08:37.000Z</time>
      </trkpt>
      <trkpt lat="43.63051" lon="6.23788">
        <ele>714</ele>
        <time>2026-02-18T14:09:01.000Z</time>
      </trkpt>
      <trkpt lat="43.6306" lon="6.23795">
        <ele>716</ele>
        <time>2026-02-18T14:09:19.000Z</time>
      </trkpt>
      <trkpt lat="43.63068" lon="6.23799">
        <ele>719</ele>
        <time>2026-02-18T14:09:31.000Z</time>
      </trkpt>
      <trkpt lat="43.63077" lon="6.23805">
        <ele>722</ele>
        <time>2026-02-18T14:09:49.000Z</time>
      </trkpt>
      <trkpt lat="43.63085" lon="6.23813">
        <ele>725</ele>
        <time>2026-02-18T14:10:01.000Z</time>
      </trkpt>
      <trkpt lat="43.63092" lon="6.23821">
        <ele>729</ele>
        <time>2026-02-18T14:10:19.000Z</time>
      </trkpt>
      <trkpt lat="43.63096" lon="6.23833">
        <ele>732</ele>
        <time>2026-02-18T14:10:48.000Z</time>
      </trkpt>
      <trkpt lat="43.63099" lon="6.23845">
        <ele>736</ele>
        <time>2026-02-18T14:11:21.000Z</time>
      </trkpt>
      <trkpt lat="43.631" lon="6.23858">
        <ele>740</ele>
        <time>2026-02-18T14:11:51.000Z</time>
      </trkpt>
      <trkpt lat="43.63102" lon="6.23871">
        <ele>744</ele>
        <time>2026-02-18T14:12:21.000Z</time>
      </trkpt>
      <trkpt lat="43.63101" lon="6.23883">
        <ele>748</ele>
        <time>2026-02-18T14:13:00.000Z</time>
      </trkpt>
      <trkpt lat="43.63105" lon="6.23893">
        <ele>751</ele>
        <time>2026-02-18T14:13:36.000Z</time>
      </trkpt>
      <trkpt lat="43.63113" lon="6.23898">
        <ele>755</ele>
        <time>2026-02-18T14:13:54.000Z</time>
      </trkpt>
      <trkpt lat="43.6312" lon="6.23905">
        <ele>759</ele>
        <time>2026-02-18T14:14:12.000Z</time>
      </trkpt>
      <trkpt lat="43.63125" lon="6.23915">
        <ele>763</ele>
        <time>2026-02-18T14:14:54.000Z</time>
      </trkpt>
      <trkpt lat="43.63131" lon="6.23925">
        <ele>767</ele>
        <time>2026-02-18T14:15:12.000Z</time>
      </trkpt>
      <trkpt lat="43.63137" lon="6.23936">
        <ele>771</ele>
        <time>2026-02-18T14:15:36.000Z</time>
      </trkpt>
      <trkpt lat="43.63144" lon="6.23945">
        <ele>774</ele>
        <time>2026-02-18T14:16:00.000Z</time>
      </trkpt>
      <trkpt lat="43.63151" lon="6.23955">
        <ele>778</ele>
        <time>2026-02-18T14:16:27.000Z</time>
      </trkpt>
      <trkpt lat="43.63152" lon="6.23967">
        <ele>781</ele>
        <time>2026-02-18T14:17:00.000Z</time>
      </trkpt>
      <trkpt lat="43.63153" lon="6.23978">
        <ele>784</ele>
        <time>2026-02-18T14:17:18.000Z</time>
      </trkpt>
      <trkpt lat="43.63161" lon="6.23979">
        <ele>787</ele>
        <time>2026-02-18T14:17:45.000Z</time>
      </trkpt>
      <trkpt lat="43.63169" lon="6.23986">
        <ele>790</ele>
        <time>2026-02-18T14:18:06.000Z</time>
      </trkpt>
      <trkpt lat="43.63174" lon="6.23997">
        <ele>794</ele>
        <time>2026-02-18T14:18:27.000Z</time>
      </trkpt>
      <trkpt lat="43.63179" lon="6.24005">
        <ele>798</ele>
        <time>2026-02-18T14:18:57.000Z</time>
      </trkpt>
      <trkpt lat="43.63187" lon="6.24009">
        <ele>802</ele>
        <time>2026-02-18T14:19:39.000Z</time>
      </trkpt>
      <trkpt lat="43.63196" lon="6.24014">
        <ele>805</ele>
        <time>2026-02-18T14:20:00.000Z</time>
      </trkpt>
      <trkpt lat="43.63206" lon="6.24022">
        <ele>807</ele>
        <time>2026-02-18T14:20:24.000Z</time>
      </trkpt>
      <trkpt lat="43.63216" lon="6.24024">
        <ele>810</ele>
        <time>2026-02-18T14:20:42.000Z</time>
      </trkpt>
      <trkpt lat="43.63224" lon="6.24027">
        <ele>813</ele>
        <time>2026-02-18T14:21:00.000Z</time>
      </trkpt>
      <trkpt lat="43.63232" lon="6.24034">
        <ele>816</ele>
        <time>2026-02-18T14:21:21.000Z</time>
      </trkpt>
      <trkpt lat="43.63237" lon="6.24045">
        <ele>820</ele>
        <time>2026-02-18T14:21:42.000Z</time>
      </trkpt>
      <trkpt lat="43.63243" lon="6.24055">
        <ele>824</ele>
        <time>2026-02-18T14:22:03.000Z</time>
      </trkpt>
      <trkpt lat="43.63252" lon="6.24062">
        <ele>827</ele>
        <time>2026-02-18T14:22:33.000Z</time>
      </trkpt>
      <trkpt lat="43.63258" lon="6.2407">
        <ele>830</ele>
        <time>2026-02-18T14:22:51.000Z</time>
      </trkpt>
      <trkpt lat="43.63266" lon="6.24081">
        <ele>833</ele>
        <time>2026-02-18T14:23:15.000Z</time>
      </trkpt>
      <trkpt lat="43.63274" lon="6.24089">
        <ele>836</ele>
        <time>2026-02-18T14:23:39.000Z</time>
      </trkpt>
      <trkpt lat="43.63281" lon="6.24098">
        <ele>839</ele>
        <time>2026-02-18T14:23:51.000Z</time>
      </trkpt>
      <trkpt lat="43.63286" lon="6.24108">
        <ele>842</ele>
        <time>2026-02-18T14:24:03.000Z</time>
      </trkpt>
      <trkpt lat="43.63294" lon="6.24117">
        <ele>843</ele>
        <time>2026-02-18T14:24:21.000Z</time>
      </trkpt>
      <trkpt lat="43.63299" lon="6.24128">
        <ele>844</ele>
        <time>2026-02-18T14:24:33.000Z</time>
      </trkpt>
      <trkpt lat="43.63299" lon="6.24141">
        <ele>845</ele>
        <time>2026-02-18T14:24:45.000Z</time>
      </trkpt>
      <trkpt lat="43.63302" lon="6.24155">
        <ele>846</ele>
        <time>2026-02-18T14:24:57.000Z</time>
      </trkpt>
      <trkpt lat="43.63303" lon="6.24168">
        <ele>847</ele>
        <time>2026-02-18T14:25:06.000Z</time>
      </trkpt>
      <trkpt lat="43.63304" lon="6.24181">
        <ele>849</ele>
        <time>2026-02-18T14:25:15.000Z</time>
      </trkpt>
      <trkpt lat="43.63305" lon="6.24195">
        <ele>850</ele>
        <time>2026-02-18T14:25:27.000Z</time>
      </trkpt>
      <trkpt lat="43.63309" lon="6.24207">
        <ele>852</ele>
        <time>2026-02-18T14:25:42.000Z</time>
      </trkpt>
      <trkpt lat="43.63316" lon="6.24215">
        <ele>853</ele>
        <time>2026-02-18T14:26:06.000Z</time>
      </trkpt>
      <trkpt lat="43.63324" lon="6.2422">
        <ele>855</ele>
        <time>2026-02-18T14:26:21.000Z</time>
      </trkpt>
      <trkpt lat="43.6333" lon="6.2423">
        <ele>857</ele>
        <time>2026-02-18T14:26:33.000Z</time>
      </trkpt>
      <trkpt lat="43.63337" lon="6.24242">
        <ele>859</ele>
        <time>2026-02-18T14:26:45.000Z</time>
      </trkpt>
      <trkpt lat="43.63344" lon="6.24252">
        <ele>861</ele>
        <time>2026-02-18T14:27:00.000Z</time>
      </trkpt>
      <trkpt lat="43.63354" lon="6.2426">
        <ele>863</ele>
        <time>2026-02-18T14:27:15.000Z</time>
      </trkpt>
      <trkpt lat="43.63364" lon="6.24266">
        <ele>865</ele>
        <time>2026-02-18T14:27:33.000Z</time>
      </trkpt>
      <trkpt lat="43.63371" lon="6.24275">
        <ele>867</ele>
        <time>2026-02-18T14:27:48.000Z</time>
      </trkpt>
      <trkpt lat="43.63378" lon="6.24282">
        <ele>868</ele>
        <time>2026-02-18T14:33:15.000Z</time>
      </trkpt>
      <trkpt lat="43.63381" lon="6.24294">
        <ele>870</ele>
        <time>2026-02-18T14:38:51.000Z</time>
      </trkpt>
      <trkpt lat="43.63383" lon="6.24308">
        <ele>871</ele>
        <time>2026-02-18T14:39:06.000Z</time>
      </trkpt>
      <trkpt lat="43.63389" lon="6.2432">
        <ele>872</ele>
        <time>2026-02-18T14:39:18.000Z</time>
      </trkpt>
      <trkpt lat="43.63395" lon="6.2433">
        <ele>872</ele>
        <time>2026-02-18T14:39:30.000Z</time>
      </trkpt>
      <trkpt lat="43.63402" lon="6.24337">
        <ele>873</ele>
        <time>2026-02-18T14:39:42.000Z</time>
      </trkpt>
      <trkpt lat="43.63403" lon="6.24349">
        <ele>873</ele>
        <time>2026-02-18T14:45:24.000Z</time>
      </trkpt>
      <trkpt lat="43.63401" lon="6.24361">
        <ele>873</ele>
        <time>2026-02-18T14:45:39.000Z</time>
      </trkpt>
      <trkpt lat="43.63398" lon="6.24372">
        <ele>874</ele>
        <time>2026-02-18T14:45:51.000Z</time>
      </trkpt>
      <trkpt lat="43.63397" lon="6.24386">
        <ele>874</ele>
        <time>2026-02-18T14:46:03.000Z</time>
      </trkpt>
      <trkpt lat="43.63395" lon="6.24401">
        <ele>874</ele>
        <time>2026-02-18T14:46:15.000Z</time>
      </trkpt>
      <trkpt lat="43.6339" lon="6.24413">
        <ele>874</ele>
        <time>2026-02-18T14:46:24.000Z</time>
      </trkpt>
      <trkpt lat="43.63383" lon="6.24423">
        <ele>874</ele>
        <time>2026-02-18T14:46:33.000Z</time>
      </trkpt>
      <trkpt lat="43.63375" lon="6.24431">
        <ele>874</ele>
        <time>2026-02-18T14:46:42.000Z</time>
      </trkpt>
      <trkpt lat="43.63367" lon="6.2444">
        <ele>875</ele>
        <time>2026-02-18T14:46:54.000Z</time>
      </trkpt>
      <trkpt lat="43.63359" lon="6.2445">
        <ele>875</ele>
        <time>2026-02-18T14:47:03.000Z</time>
      </trkpt>
      <trkpt lat="43.63352" lon="6.24459">
        <ele>875</ele>
        <time>2026-02-18T14:47:12.000Z</time>
      </trkpt>
      <trkpt lat="43.63343" lon="6.24465">
        <ele>876</ele>
        <time>2026-02-18T14:47:21.000Z</time>
      </trkpt>
      <trkpt lat="43.63334" lon="6.24471">
        <ele>876</ele>
        <time>2026-02-18T14:47:30.000Z</time>
      </trkpt>
      <trkpt lat="43.63325" lon="6.24476">
        <ele>876</ele>
        <time>2026-02-18T14:47:39.000Z</time>
      </trkpt>
      <trkpt lat="43.63317" lon="6.24483">
        <ele>877</ele>
        <time>2026-02-18T14:47:48.000Z</time>
      </trkpt>
      <trkpt lat="43.63309" lon="6.24492">
        <ele>877</ele>
        <time>2026-02-18T14:47:57.000Z</time>
      </trkpt>
      <trkpt lat="43.63303" lon="6.24502">
        <ele>878</ele>
        <time>2026-02-18T14:48:06.000Z</time>
      </trkpt>
      <trkpt lat="43.63296" lon="6.24514">
        <ele>879</ele>
        <time>2026-02-18T14:48:15.000Z</time>
      </trkpt>
      <trkpt lat="43.6329" lon="6.24527">
        <ele>879</ele>
        <time>2026-02-18T14:48:24.000Z</time>
      </trkpt>
      <trkpt lat="43.63285" lon="6.24537">
        <ele>880</ele>
        <time>2026-02-18T14:48:33.000Z</time>
      </trkpt>
      <trkpt lat="43.6328" lon="6.24547">
        <ele>881</ele>
        <time>2026-02-18T14:48:42.000Z</time>
      </trkpt>
      <trkpt lat="43.63275" lon="6.2456">
        <ele>881</ele>
        <time>2026-02-18T14:48:51.000Z</time>
      </trkpt>
      <trkpt lat="43.63271" lon="6.24571">
        <ele>881</ele>
        <time>2026-02-18T14:49:00.000Z</time>
      </trkpt>
      <trkpt lat="43.63267" lon="6.24584">
        <ele>882</ele>
        <time>2026-02-18T14:49:09.000Z</time>
      </trkpt>
      <trkpt lat="43.63264" lon="6.24597">
        <ele>882</ele>
        <time>2026-02-18T14:49:18.000Z</time>
      </trkpt>
      <trkpt lat="43.63259" lon="6.24609">
        <ele>882</ele>
        <time>2026-02-18T14:49:27.000Z</time>
      </trkpt>
      <trkpt lat="43.63253" lon="6.24619">
        <ele>882</ele>
        <time>2026-02-18T14:49:36.000Z</time>
      </trkpt>
      <trkpt lat="43.63244" lon="6.24619">
        <ele>883</ele>
        <time>2026-02-18T14:49:54.000Z</time>
      </trkpt>
      <trkpt lat="43.63235" lon="6.24613">
        <ele>883</ele>
        <time>2026-02-18T14:50:15.000Z</time>
      </trkpt>
      <trkpt lat="43.63226" lon="6.24606">
        <ele>884</ele>
        <time>2026-02-18T14:50:24.000Z</time>
      </trkpt>
      <trkpt lat="43.63218" lon="6.24602">
        <ele>884</ele>
        <time>2026-02-18T14:50:36.000Z</time>
      </trkpt>
      <trkpt lat="43.63209" lon="6.24596">
        <ele>885</ele>
        <time>2026-02-18T14:50:51.000Z</time>
      </trkpt>
      <trkpt lat="43.632" lon="6.24589">
        <ele>885</ele>
        <time>2026-02-18T14:51:06.000Z</time>
      </trkpt>
      <trkpt lat="43.6319" lon="6.24583">
        <ele>885</ele>
        <time>2026-02-18T14:51:18.000Z</time>
      </trkpt>
      <trkpt lat="43.63181" lon="6.24578">
        <ele>884</ele>
        <time>2026-02-18T14:51:30.000Z</time>
      </trkpt>
      <trkpt lat="43.63172" lon="6.24571">
        <ele>883</ele>
        <time>2026-02-18T14:51:45.000Z</time>
      </trkpt>
      <trkpt lat="43.63164" lon="6.24566">
        <ele>882</ele>
        <time>2026-02-18T14:52:00.000Z</time>
      </trkpt>
      <trkpt lat="43.63154" lon="6.24561">
        <ele>882</ele>
        <time>2026-02-18T14:52:15.000Z</time>
      </trkpt>
      <trkpt lat="43.63148" lon="6.24553">
        <ele>881</ele>
        <time>2026-02-18T14:52:30.000Z</time>
      </trkpt>
      <trkpt lat="43.63144" lon="6.24541">
        <ele>881</ele>
        <time>2026-02-18T14:52:42.000Z</time>
      </trkpt>
      <trkpt lat="43.6314" lon="6.2453">
        <ele>880</ele>
        <time>2026-02-18T14:52:54.000Z</time>
      </trkpt>
      <trkpt lat="43.63134" lon="6.2452">
        <ele>879</ele>
        <time>2026-02-18T14:53:03.000Z</time>
      </trkpt>
      <trkpt lat="43.63129" lon="6.24511">
        <ele>878</ele>
        <time>2026-02-18T14:53:21.000Z</time>
      </trkpt>
      <trkpt lat="43.63121" lon="6.24505">
        <ele>877</ele>
        <time>2026-02-18T14:53:36.000Z</time>
      </trkpt>
      <trkpt lat="43.63111" lon="6.24498">
        <ele>875</ele>
        <time>2026-02-18T14:53:57.000Z</time>
      </trkpt>
      <trkpt lat="43.63104" lon="6.24487">
        <ele>874</ele>
        <time>2026-02-18T14:54:15.000Z</time>
      </trkpt>
      <trkpt lat="43.63097" lon="6.24476">
        <ele>873</ele>
        <time>2026-02-18T14:54:27.000Z</time>
      </trkpt>
      <trkpt lat="43.63091" lon="6.24467">
        <ele>872</ele>
        <time>2026-02-18T14:54:45.000Z</time>
      </trkpt>
      <trkpt lat="43.63082" lon="6.24463">
        <ele>872</ele>
        <time>2026-02-18T14:55:12.000Z</time>
      </trkpt>
      <trkpt lat="43.63075" lon="6.24459">
        <ele>873</ele>
        <time>2026-02-18T14:55:30.000Z</time>
      </trkpt>
      <trkpt lat="43.63081" lon="6.24464">
        <ele>873</ele>
        <time>2026-02-18T14:59:15.000Z</time>
      </trkpt>
      <trkpt lat="43.6309" lon="6.24467">
        <ele>875</ele>
        <time>2026-02-18T14:59:36.000Z</time>
      </trkpt>
      <trkpt lat="43.63098" lon="6.24478">
        <ele>875</ele>
        <time>2026-02-18T14:59:54.000Z</time>
      </trkpt>
      <trkpt lat="43.63103" lon="6.24488">
        <ele>877</ele>
        <time>2026-02-18T15:00:06.000Z</time>
      </trkpt>
      <trkpt lat="43.6311" lon="6.24497">
        <ele>878</ele>
        <time>2026-02-18T15:00:15.000Z</time>
      </trkpt>
      <trkpt lat="43.63118" lon="6.24504">
        <ele>878</ele>
        <time>2026-02-18T15:00:33.000Z</time>
      </trkpt>
      <trkpt lat="43.63127" lon="6.2451">
        <ele>880</ele>
        <time>2026-02-18T15:00:51.000Z</time>
      </trkpt>
      <trkpt lat="43.63135" lon="6.2452">
        <ele>881</ele>
        <time>2026-02-18T15:01:09.000Z</time>
      </trkpt>
      <trkpt lat="43.6314" lon="6.24531">
        <ele>882</ele>
        <time>2026-02-18T15:01:24.000Z</time>
      </trkpt>
      <trkpt lat="43.63143" lon="6.24543">
        <ele>883</ele>
        <time>2026-02-18T15:01:36.000Z</time>
      </trkpt>
      <trkpt lat="43.63148" lon="6.24555">
        <ele>884</ele>
        <time>2026-02-18T15:01:48.000Z</time>
      </trkpt>
      <trkpt lat="43.63156" lon="6.24562">
        <ele>885</ele>
        <time>2026-02-18T15:02:00.000Z</time>
      </trkpt>
      <trkpt lat="43.63165" lon="6.24564">
        <ele>885</ele>
        <time>2026-02-18T15:02:15.000Z</time>
      </trkpt>
      <trkpt lat="43.63174" lon="6.24571">
        <ele>885</ele>
        <time>2026-02-18T15:02:27.000Z</time>
      </trkpt>
      <trkpt lat="43.63183" lon="6.24578">
        <ele>886</ele>
        <time>2026-02-18T15:02:39.000Z</time>
      </trkpt>
      <trkpt lat="43.63194" lon="6.24586">
        <ele>886</ele>
        <time>2026-02-18T15:02:51.000Z</time>
      </trkpt>
      <trkpt lat="43.63204" lon="6.24591">
        <ele>886</ele>
        <time>2026-02-18T15:03:06.000Z</time>
      </trkpt>
      <trkpt lat="43.63212" lon="6.24599">
        <ele>886</ele>
        <time>2026-02-18T15:03:18.000Z</time>
      </trkpt>
      <trkpt lat="43.6322" lon="6.24602">
        <ele>886</ele>
        <time>2026-02-18T15:03:33.000Z</time>
      </trkpt>
      <trkpt lat="43.63229" lon="6.2461">
        <ele>886</ele>
        <time>2026-02-18T15:03:48.000Z</time>
      </trkpt>
      <trkpt lat="43.63237" lon="6.24614">
        <ele>886</ele>
        <time>2026-02-18T15:04:03.000Z</time>
      </trkpt>
      <trkpt lat="43.63245" lon="6.2462">
        <ele>886</ele>
        <time>2026-02-18T15:04:18.000Z</time>
      </trkpt>
      <trkpt lat="43.63248" lon="6.24633">
        <ele>886</ele>
        <time>2026-02-18T15:04:42.000Z</time>
      </trkpt>
      <trkpt lat="43.63246" lon="6.24648">
        <ele>886</ele>
        <time>2026-02-18T15:04:54.000Z</time>
      </trkpt>
      <trkpt lat="43.63245" lon="6.24661">
        <ele>885</ele>
        <time>2026-02-18T15:05:03.000Z</time>
      </trkpt>
      <trkpt lat="43.63246" lon="6.24674">
        <ele>884</ele>
        <time>2026-02-18T15:05:12.000Z</time>
      </trkpt>
      <trkpt lat="43.63247" lon="6.24686">
        <ele>883</ele>
        <time>2026-02-18T15:05:24.000Z</time>
      </trkpt>
      <trkpt lat="43.63246" lon="6.24698">
        <ele>883</ele>
        <time>2026-02-18T15:05:36.000Z</time>
      </trkpt>
      <trkpt lat="43.6324" lon="6.2471">
        <ele>882</ele>
        <time>2026-02-18T15:05:48.000Z</time>
      </trkpt>
      <trkpt lat="43.63234" lon="6.24724">
        <ele>882</ele>
        <time>2026-02-18T15:06:00.000Z</time>
      </trkpt>
      <trkpt lat="43.63228" lon="6.24736">
        <ele>881</ele>
        <time>2026-02-18T15:06:09.000Z</time>
      </trkpt>
      <trkpt lat="43.63221" lon="6.24747">
        <ele>881</ele>
        <time>2026-02-18T15:06:18.000Z</time>
      </trkpt>
      <trkpt lat="43.63215" lon="6.24757">
        <ele>880</ele>
        <time>2026-02-18T15:06:27.000Z</time>
      </trkpt>
      <trkpt lat="43.6321" lon="6.2477">
        <ele>879</ele>
        <time>2026-02-18T15:06:36.000Z</time>
      </trkpt>
      <trkpt lat="43.63205" lon="6.24784">
        <ele>879</ele>
        <time>2026-02-18T15:06:48.000Z</time>
      </trkpt>
      <trkpt lat="43.63202" lon="6.24798">
        <ele>879</ele>
        <time>2026-02-18T15:06:57.000Z</time>
      </trkpt>
      <trkpt lat="43.63201" lon="6.24812">
        <ele>879</ele>
        <time>2026-02-18T15:07:06.000Z</time>
      </trkpt>
      <trkpt lat="43.632" lon="6.24825">
        <ele>880</ele>
        <time>2026-02-18T15:07:15.000Z</time>
      </trkpt>
      <trkpt lat="43.63198" lon="6.24838">
        <ele>880</ele>
        <time>2026-02-18T15:07:24.000Z</time>
      </trkpt>
      <trkpt lat="43.63197" lon="6.24852">
        <ele>881</ele>
        <time>2026-02-18T15:07:36.000Z</time>
      </trkpt>
      <trkpt lat="43.63198" lon="6.24865">
        <ele>880</ele>
        <time>2026-02-18T15:07:51.000Z</time>
      </trkpt>
      <trkpt lat="43.63204" lon="6.24873">
        <ele>879</ele>
        <time>2026-02-18T15:08:06.000Z</time>
      </trkpt>
      <trkpt lat="43.63213" lon="6.24871">
        <ele>878</ele>
        <time>2026-02-18T15:08:42.000Z</time>
      </trkpt>
      <trkpt lat="43.63222" lon="6.24865">
        <ele>876</ele>
        <time>2026-02-18T15:09:12.000Z</time>
      </trkpt>
      <trkpt lat="43.63229" lon="6.24856">
        <ele>873</ele>
        <time>2026-02-18T15:09:27.000Z</time>
      </trkpt>
      <trkpt lat="43.63237" lon="6.24848">
        <ele>871</ele>
        <time>2026-02-18T15:09:42.000Z</time>
      </trkpt>
      <trkpt lat="43.63244" lon="6.24843">
        <ele>868</ele>
        <time>2026-02-18T15:09:57.000Z</time>
      </trkpt>
      <trkpt lat="43.63253" lon="6.24838">
        <ele>865</ele>
        <time>2026-02-18T15:10:24.000Z</time>
      </trkpt>
      <trkpt lat="43.63263" lon="6.24836">
        <ele>862</ele>
        <time>2026-02-18T15:10:51.000Z</time>
      </trkpt>
      <trkpt lat="43.63272" lon="6.24833">
        <ele>859</ele>
        <time>2026-02-18T15:11:24.000Z</time>
      </trkpt>
      <trkpt lat="43.6328" lon="6.24828">
        <ele>856</ele>
        <time>2026-02-18T15:11:51.000Z</time>
      </trkpt>
      <trkpt lat="43.63289" lon="6.24823">
        <ele>853</ele>
        <time>2026-02-18T15:12:18.000Z</time>
      </trkpt>
      <trkpt lat="43.63298" lon="6.24821">
        <ele>850</ele>
        <time>2026-02-18T15:12:39.000Z</time>
      </trkpt>
      <trkpt lat="43.63307" lon="6.24819">
        <ele>847</ele>
        <time>2026-02-18T15:13:00.000Z</time>
      </trkpt>
      <trkpt lat="43.63316" lon="6.24813">
        <ele>845</ele>
        <time>2026-02-18T15:13:18.000Z</time>
      </trkpt>
      <trkpt lat="43.63324" lon="6.24808">
        <ele>843</ele>
        <time>2026-02-18T15:13:30.000Z</time>
      </trkpt>
      <trkpt lat="43.63333" lon="6.24804">
        <ele>841</ele>
        <time>2026-02-18T15:13:42.000Z</time>
      </trkpt>
      <trkpt lat="43.63343" lon="6.24804">
        <ele>839</ele>
        <time>2026-02-18T15:13:54.000Z</time>
      </trkpt>
      <trkpt lat="43.63353" lon="6.24801">
        <ele>836</ele>
        <time>2026-02-18T15:14:06.000Z</time>
      </trkpt>
      <trkpt lat="43.63364" lon="6.24801">
        <ele>833</ele>
        <time>2026-02-18T15:14:18.000Z</time>
      </trkpt>
      <trkpt lat="43.63374" lon="6.24799">
        <ele>830</ele>
        <time>2026-02-18T15:14:33.000Z</time>
      </trkpt>
      <trkpt lat="43.63383" lon="6.24795">
        <ele>827</ele>
        <time>2026-02-18T15:14:42.000Z</time>
      </trkpt>
      <trkpt lat="43.63392" lon="6.24788">
        <ele>824</ele>
        <time>2026-02-18T15:14:54.000Z</time>
      </trkpt>
      <trkpt lat="43.634" lon="6.24782">
        <ele>822</ele>
        <time>2026-02-18T15:15:06.000Z</time>
      </trkpt>
      <trkpt lat="43.63409" lon="6.24777">
        <ele>820</ele>
        <time>2026-02-18T15:15:18.000Z</time>
      </trkpt>
      <trkpt lat="43.63418" lon="6.24771">
        <ele>818</ele>
        <time>2026-02-18T15:15:30.000Z</time>
      </trkpt>
      <trkpt lat="43.63427" lon="6.24767">
        <ele>816</ele>
        <time>2026-02-18T15:15:42.000Z</time>
      </trkpt>
      <trkpt lat="43.63436" lon="6.24762">
        <ele>814</ele>
        <time>2026-02-18T15:15:51.000Z</time>
      </trkpt>
      <trkpt lat="43.63444" lon="6.24758">
        <ele>813</ele>
        <time>2026-02-18T15:16:00.000Z</time>
      </trkpt>
      <trkpt lat="43.63453" lon="6.24756">
        <ele>812</ele>
        <time>2026-02-18T15:16:09.000Z</time>
      </trkpt>
      <trkpt lat="43.63462" lon="6.24756">
        <ele>811</ele>
        <time>2026-02-18T15:16:21.000Z</time>
      </trkpt>
      <trkpt lat="43.63472" lon="6.24756">
        <ele>809</ele>
        <time>2026-02-18T15:16:33.000Z</time>
      </trkpt>
      <trkpt lat="43.63482" lon="6.24755">
        <ele>808</ele>
        <time>2026-02-18T15:16:45.000Z</time>
      </trkpt>
      <trkpt lat="43.63493" lon="6.24756">
        <ele>806</ele>
        <time>2026-02-18T15:16:57.000Z</time>
      </trkpt>
      <trkpt lat="43.63503" lon="6.24756">
        <ele>803</ele>
        <time>2026-02-18T15:17:12.000Z</time>
      </trkpt>
      <trkpt lat="43.63512" lon="6.24754">
        <ele>801</ele>
        <time>2026-02-18T15:17:24.000Z</time>
      </trkpt>
      <trkpt lat="43.63521" lon="6.24751">
        <ele>799</ele>
        <time>2026-02-18T15:17:36.000Z</time>
      </trkpt>
      <trkpt lat="43.63531" lon="6.24747">
        <ele>798</ele>
        <time>2026-02-18T15:17:48.000Z</time>
      </trkpt>
      <trkpt lat="43.63541" lon="6.24742">
        <ele>796</ele>
        <time>2026-02-18T15:18:00.000Z</time>
      </trkpt>
      <trkpt lat="43.63551" lon="6.24743">
        <ele>795</ele>
        <time>2026-02-18T15:18:06.000Z</time>
      </trkpt>
      <trkpt lat="43.63564" lon="6.24745">
        <ele>793</ele>
        <time>2026-02-18T15:18:18.000Z</time>
      </trkpt>
      <trkpt lat="43.63574" lon="6.24747">
        <ele>792</ele>
        <time>2026-02-18T15:18:27.000Z</time>
      </trkpt>
      <trkpt lat="43.63584" lon="6.24747">
        <ele>790</ele>
        <time>2026-02-18T15:18:36.000Z</time>
      </trkpt>
      <trkpt lat="43.63593" lon="6.24747">
        <ele>788</ele>
        <time>2026-02-18T15:18:45.000Z</time>
      </trkpt>
      <trkpt lat="43.63603" lon="6.24748">
        <ele>786</ele>
        <time>2026-02-18T15:18:54.000Z</time>
      </trkpt>
      <trkpt lat="43.63614" lon="6.24747">
        <ele>783</ele>
        <time>2026-02-18T15:19:03.000Z</time>
      </trkpt>
      <trkpt lat="43.63623" lon="6.24746">
        <ele>781</ele>
        <time>2026-02-18T15:19:12.000Z</time>
      </trkpt>
      <trkpt lat="43.63631" lon="6.24741">
        <ele>778</ele>
        <time>2026-02-18T15:19:21.000Z</time>
      </trkpt>
      <trkpt lat="43.6364" lon="6.24736">
        <ele>777</ele>
        <time>2026-02-18T15:19:30.000Z</time>
      </trkpt>
      <trkpt lat="43.63649" lon="6.24728">
        <ele>775</ele>
        <time>2026-02-18T15:19:39.000Z</time>
      </trkpt>
      <trkpt lat="43.63658" lon="6.24721">
        <ele>774</ele>
        <time>2026-02-18T15:19:48.000Z</time>
      </trkpt>
      <trkpt lat="43.63667" lon="6.24717">
        <ele>772</ele>
        <time>2026-02-18T15:19:57.000Z</time>
      </trkpt>
      <trkpt lat="43.63678" lon="6.24713">
        <ele>771</ele>
        <time>2026-02-18T15:20:12.000Z</time>
      </trkpt>
      <trkpt lat="43.63689" lon="6.24709">
        <ele>769</ele>
        <time>2026-02-18T15:20:21.000Z</time>
      </trkpt>
      <trkpt lat="43.63697" lon="6.24701">
        <ele>768</ele>
        <time>2026-02-18T15:20:33.000Z</time>
      </trkpt>
      <trkpt lat="43.63706" lon="6.24694">
        <ele>767</ele>
        <time>2026-02-18T15:20:45.000Z</time>
      </trkpt>
      <trkpt lat="43.63714" lon="6.2469">
        <ele>766</ele>
        <time>2026-02-18T15:20:54.000Z</time>
      </trkpt>
      <trkpt lat="43.63725" lon="6.24686">
        <ele>766</ele>
        <time>2026-02-18T15:21:03.000Z</time>
      </trkpt>
      <trkpt lat="43.63737" lon="6.24683">
        <ele>765</ele>
        <time>2026-02-18T15:21:09.000Z</time>
      </trkpt>
      <trkpt lat="43.63748" lon="6.24685">
        <ele>765</ele>
        <time>2026-02-18T15:21:21.000Z</time>
      </trkpt>
      <trkpt lat="43.63758" lon="6.24689">
        <ele>764</ele>
        <time>2026-02-18T15:21:31.000Z</time>
      </trkpt>
      <trkpt lat="43.63766" lon="6.24696">
        <ele>764</ele>
        <time>2026-02-18T15:21:43.000Z</time>
      </trkpt>
      <trkpt lat="43.63773" lon="6.24705">
        <ele>762</ele>
        <time>2026-02-18T15:21:58.000Z</time>
      </trkpt>
      <trkpt lat="43.63779" lon="6.24715">
        <ele>761</ele>
        <time>2026-02-18T15:22:25.000Z</time>
      </trkpt>
      <trkpt lat="43.63786" lon="6.24725">
        <ele>759</ele>
        <time>2026-02-18T15:22:40.000Z</time>
      </trkpt>
      <trkpt lat="43.63786" lon="6.24737">
        <ele>757</ele>
        <time>2026-02-18T15:22:55.000Z</time>
      </trkpt>
      <trkpt lat="43.63792" lon="6.2475">
        <ele>756</ele>
        <time>2026-02-18T15:23:04.000Z</time>
      </trkpt>
      <trkpt lat="43.63799" lon="6.24759">
        <ele>754</ele>
        <time>2026-02-18T15:23:13.000Z</time>
      </trkpt>
      <trkpt lat="43.63806" lon="6.24768">
        <ele>752</ele>
        <time>2026-02-18T15:23:22.000Z</time>
      </trkpt>
      <trkpt lat="43.63814" lon="6.24775">
        <ele>750</ele>
        <time>2026-02-18T15:23:31.000Z</time>
      </trkpt>
      <trkpt lat="43.63823" lon="6.24783">
        <ele>749</ele>
        <time>2026-02-18T15:23:40.000Z</time>
      </trkpt>
      <trkpt lat="43.63831" lon="6.24787">
        <ele>747</ele>
        <time>2026-02-18T15:23:46.000Z</time>
      </trkpt>
      <trkpt lat="43.63838" lon="6.24794">
        <ele>745</ele>
        <time>2026-02-18T15:23:55.000Z</time>
      </trkpt>
      <trkpt lat="43.63847" lon="6.248">
        <ele>743</ele>
        <time>2026-02-18T15:24:07.000Z</time>
      </trkpt>
      <trkpt lat="43.63857" lon="6.24805">
        <ele>741</ele>
        <time>2026-02-18T15:24:16.000Z</time>
      </trkpt>
      <trkpt lat="43.63865" lon="6.24812">
        <ele>739</ele>
        <time>2026-02-18T15:24:25.000Z</time>
      </trkpt>
      <trkpt lat="43.63875" lon="6.24817">
        <ele>737</ele>
        <time>2026-02-18T15:24:37.000Z</time>
      </trkpt>
      <trkpt lat="43.63883" lon="6.24825">
        <ele>736</ele>
        <time>2026-02-18T15:24:46.000Z</time>
      </trkpt>
      <trkpt lat="43.63892" lon="6.2483">
        <ele>734</ele>
        <time>2026-02-18T15:24:55.000Z</time>
      </trkpt>
      <trkpt lat="43.63901" lon="6.24835">
        <ele>732</ele>
        <time>2026-02-18T15:25:07.000Z</time>
      </trkpt>
      <trkpt lat="43.63909" lon="6.24842">
        <ele>731</ele>
        <time>2026-02-18T15:25:16.000Z</time>
      </trkpt>
      <trkpt lat="43.63916" lon="6.24852">
        <ele>729</ele>
        <time>2026-02-18T15:25:25.000Z</time>
      </trkpt>
      <trkpt lat="43.63922" lon="6.24863">
        <ele>726</ele>
        <time>2026-02-18T15:25:34.000Z</time>
      </trkpt>
      <trkpt lat="43.63927" lon="6.24875">
        <ele>725</ele>
        <time>2026-02-18T15:25:46.000Z</time>
      </trkpt>
      <trkpt lat="43.63929" lon="6.24888">
        <ele>723</ele>
        <time>2026-02-18T15:25:58.000Z</time>
      </trkpt>
      <trkpt lat="43.63934" lon="6.249">
        <ele>722</ele>
        <time>2026-02-18T15:26:10.000Z</time>
      </trkpt>
      <trkpt lat="43.6394" lon="6.2491">
        <ele>720</ele>
        <time>2026-02-18T15:26:19.000Z</time>
      </trkpt>
      <trkpt lat="43.63947" lon="6.24918">
        <ele>718</ele>
        <time>2026-02-18T15:26:31.000Z</time>
      </trkpt>
      <trkpt lat="43.63956" lon="6.24917">
        <ele>717</ele>
        <time>2026-02-18T15:27:22.000Z</time>
      </trkpt>
      <trkpt lat="43.63966" lon="6.24916">
        <ele>716</ele>
        <time>2026-02-18T15:27:31.000Z</time>
      </trkpt>
      <trkpt lat="43.63976" lon="6.24915">
        <ele>714</ele>
        <time>2026-02-18T15:27:40.000Z</time>
      </trkpt>
      <trkpt lat="43.63985" lon="6.24914">
        <ele>713</ele>
        <time>2026-02-18T15:27:49.000Z</time>
      </trkpt>
      <trkpt lat="43.63995" lon="6.24912">
        <ele>712</ele>
        <time>2026-02-18T15:27:58.000Z</time>
      </trkpt>
      <trkpt lat="43.64006" lon="6.2491">
        <ele>711</ele>
        <time>2026-02-18T15:28:07.000Z</time>
      </trkpt>
      <trkpt lat="43.64015" lon="6.24906">
        <ele>710</ele>
        <time>2026-02-18T15:28:16.000Z</time>
      </trkpt>
      <trkpt lat="43.64021" lon="6.24895">
        <ele>709</ele>
        <time>2026-02-18T15:28:25.000Z</time>
      </trkpt>
      <trkpt lat="43.64027" lon="6.24883">
        <ele>709</ele>
        <time>2026-02-18T15:28:34.000Z</time>
      </trkpt>
      <trkpt lat="43.64031" lon="6.2487">
        <ele>708</ele>
        <time>2026-02-18T15:28:43.000Z</time>
      </trkpt>
      <trkpt lat="43.64036" lon="6.24857">
        <ele>708</ele>
        <time>2026-02-18T15:28:52.000Z</time>
      </trkpt>
      <trkpt lat="43.64039" lon="6.24845">
        <ele>707</ele>
        <time>2026-02-18T15:29:01.000Z</time>
      </trkpt>
      <trkpt lat="43.64041" lon="6.24831">
        <ele>707</ele>
        <time>2026-02-18T15:29:10.000Z</time>
      </trkpt>
      <trkpt lat="43.64043" lon="6.24815">
        <ele>707</ele>
        <time>2026-02-18T15:29:19.000Z</time>
      </trkpt>
      <trkpt lat="43.64046" lon="6.24801">
        <ele>707</ele>
        <time>2026-02-18T15:29:28.000Z</time>
      </trkpt>
      <trkpt lat="43.64047" lon="6.24787">
        <ele>707</ele>
        <time>2026-02-18T15:29:37.000Z</time>
      </trkpt>
      <trkpt lat="43.6405" lon="6.24773">
        <ele>706</ele>
        <time>2026-02-18T15:29:46.000Z</time>
      </trkpt>
      <trkpt lat="43.64053" lon="6.24759">
        <ele>706</ele>
        <time>2026-02-18T15:29:55.000Z</time>
      </trkpt>
      <trkpt lat="43.64058" lon="6.24749">
        <ele>706</ele>
        <time>2026-02-18T15:30:01.000Z</time>
      </trkpt>
      <trkpt lat="43.64062" lon="6.24738">
        <ele>705</ele>
        <time>2026-02-18T15:30:10.000Z</time>
      </trkpt>
      <trkpt lat="43.64068" lon="6.24726">
        <ele>705</ele>
        <time>2026-02-18T15:30:19.000Z</time>
      </trkpt>
      <trkpt lat="43.64075" lon="6.24715">
        <ele>704</ele>
        <time>2026-02-18T15:30:28.000Z</time>
      </trkpt>
      <trkpt lat="43.64083" lon="6.24705">
        <ele>704</ele>
        <time>2026-02-18T15:30:37.000Z</time>
      </trkpt>
      <trkpt lat="43.64091" lon="6.24697">
        <ele>703</ele>
        <time>2026-02-18T15:30:43.000Z</time>
      </trkpt>
      <trkpt lat="43.64098" lon="6.24686">
        <ele>703</ele>
        <time>2026-02-18T15:30:52.000Z</time>
      </trkpt>
      <trkpt lat="43.64104" lon="6.24675">
        <ele>702</ele>
        <time>2026-02-18T15:31:01.000Z</time>
      </trkpt>
      <trkpt lat="43.6411" lon="6.24663">
        <ele>701</ele>
        <time>2026-02-18T15:31:10.000Z</time>
      </trkpt>
      <trkpt lat="43.64116" lon="6.2465">
        <ele>701</ele>
        <time>2026-02-18T15:31:19.000Z</time>
      </trkpt>
      <trkpt lat="43.64122" lon="6.24638">
        <ele>701</ele>
        <time>2026-02-18T15:31:28.000Z</time>
      </trkpt>
      <trkpt lat="43.64127" lon="6.24625">
        <ele>701</ele>
        <time>2026-02-18T15:31:37.000Z</time>
      </trkpt>
      <trkpt lat="43.64134" lon="6.24612">
        <ele>701</ele>
        <time>2026-02-18T15:31:46.000Z</time>
      </trkpt>
      <trkpt lat="43.64139" lon="6.24599">
        <ele>701</ele>
        <time>2026-02-18T15:31:55.000Z</time>
      </trkpt>
      <trkpt lat="43.64142" lon="6.24584">
        <ele>701</ele>
        <time>2026-02-18T15:32:04.000Z</time>
      </trkpt>
      <trkpt lat="43.64143" lon="6.24569">
        <ele>701</ele>
        <time>2026-02-18T15:32:13.000Z</time>
      </trkpt>
      <trkpt lat="43.64143" lon="6.24555">
        <ele>700</ele>
        <time>2026-02-18T15:32:22.000Z</time>
      </trkpt>
      <trkpt lat="43.64144" lon="6.24542">
        <ele>700</ele>
        <time>2026-02-18T15:32:31.000Z</time>
      </trkpt>
      <trkpt lat="43.6415" lon="6.24532">
        <ele>700</ele>
        <time>2026-02-18T15:32:40.000Z</time>
      </trkpt>
      <trkpt lat="43.64161" lon="6.24529">
        <ele>699</ele>
        <time>2026-02-18T15:32:49.000Z</time>
      </trkpt>
      <trkpt lat="43.64172" lon="6.24531">
        <ele>699</ele>
        <time>2026-02-18T15:32:58.000Z</time>
      </trkpt>
      <trkpt lat="43.64181" lon="6.2453">
        <ele>698</ele>
        <time>2026-02-18T15:33:04.000Z</time>
      </trkpt>
      <trkpt lat="43.6419" lon="6.24523">
        <ele>698</ele>
        <time>2026-02-18T15:33:16.000Z</time>
      </trkpt>
      <trkpt lat="43.64195" lon="6.24511">
        <ele>697</ele>
        <time>2026-02-18T15:33:25.000Z</time>
      </trkpt>
      <trkpt lat="43.64198" lon="6.24497">
        <ele>696</ele>
        <time>2026-02-18T15:33:34.000Z</time>
      </trkpt>
      <trkpt lat="43.642" lon="6.24482">
        <ele>695</ele>
        <time>2026-02-18T15:33:43.000Z</time>
      </trkpt>
      <trkpt lat="43.64203" lon="6.24467">
        <ele>694</ele>
        <time>2026-02-18T15:33:52.000Z</time>
      </trkpt>
      <trkpt lat="43.64206" lon="6.24453">
        <ele>693</ele>
        <time>2026-02-18T15:34:01.000Z</time>
      </trkpt>
      <trkpt lat="43.6421" lon="6.24438">
        <ele>692</ele>
        <time>2026-02-18T15:34:10.000Z</time>
      </trkpt>
      <trkpt lat="43.64214" lon="6.24425">
        <ele>692</ele>
        <time>2026-02-18T15:34:19.000Z</time>
      </trkpt>
      <trkpt lat="43.64217" lon="6.24411">
        <ele>691</ele>
        <time>2026-02-18T15:34:28.000Z</time>
      </trkpt>
      <trkpt lat="43.64222" lon="6.24397">
        <ele>691</ele>
        <time>2026-02-18T15:34:37.000Z</time>
      </trkpt>
      <trkpt lat="43.64228" lon="6.24384">
        <ele>691</ele>
        <time>2026-02-18T15:34:46.000Z</time>
      </trkpt>
      <trkpt lat="43.64232" lon="6.2437">
        <ele>691</ele>
        <time>2026-02-18T15:34:55.000Z</time>
      </trkpt>
      <trkpt lat="43.64236" lon="6.24359">
        <ele>691</ele>
        <time>2026-02-18T15:35:01.000Z</time>
      </trkpt>
      <trkpt lat="43.64238" lon="6.24343">
        <ele>690</ele>
        <time>2026-02-18T15:35:10.000Z</time>
      </trkpt>
      <trkpt lat="43.64237" lon="6.24329">
        <ele>689</ele>
        <time>2026-02-18T15:35:19.000Z</time>
      </trkpt>
      <trkpt lat="43.64234" lon="6.24315">
        <ele>688</ele>
        <time>2026-02-18T15:35:28.000Z</time>
      </trkpt>
      <trkpt lat="43.64228" lon="6.24304">
        <ele>687</ele>
        <time>2026-02-18T15:35:37.000Z</time>
      </trkpt>
      <trkpt lat="43.64218" lon="6.24296">
        <ele>687</ele>
        <time>2026-02-18T15:35:46.000Z</time>
      </trkpt>
      <trkpt lat="43.64208" lon="6.24295">
        <ele>686</ele>
        <time>2026-02-18T15:35:55.000Z</time>
      </trkpt>
      <trkpt lat="43.64198" lon="6.24298">
        <ele>685</ele>
        <time>2026-02-18T15:36:04.000Z</time>
      </trkpt>
      <trkpt lat="43.64189" lon="6.24308">
        <ele>685</ele>
        <time>2026-02-18T15:36:13.000Z</time>
      </trkpt>
      <trkpt lat="43.64182" lon="6.24318">
        <ele>685</ele>
        <time>2026-02-18T15:36:22.000Z</time>
      </trkpt>
      <trkpt lat="43.64173" lon="6.24323">
        <ele>686</ele>
        <time>2026-02-18T15:36:31.000Z</time>
      </trkpt>
      <trkpt lat="43.64165" lon="6.24313">
        <ele>686</ele>
        <time>2026-02-18T15:36:43.000Z</time>
      </trkpt>
      <trkpt lat="43.64161" lon="6.24298">
        <ele>686</ele>
        <time>2026-02-18T15:36:52.000Z</time>
      </trkpt>
      <trkpt lat="43.6416" lon="6.24283">
        <ele>685</ele>
        <time>2026-02-18T15:37:01.000Z</time>
      </trkpt>
      <trkpt lat="43.6416" lon="6.24269">
        <ele>684</ele>
        <time>2026-02-18T15:37:13.000Z</time>
      </trkpt>
      <trkpt lat="43.64164" lon="6.24255">
        <ele>683</ele>
        <time>2026-02-18T15:37:22.000Z</time>
      </trkpt>
      <trkpt lat="43.64173" lon="6.24243">
        <ele>683</ele>
        <time>2026-02-18T15:37:34.000Z</time>
      </trkpt>
      <trkpt lat="43.64179" lon="6.24231">
        <ele>682</ele>
        <time>2026-02-18T15:37:43.000Z</time>
      </trkpt>
      <trkpt lat="43.6418" lon="6.24217">
        <ele>681</ele>
        <time>2026-02-18T15:37:52.000Z</time>
      </trkpt>
      <trkpt lat="43.64177" lon="6.24204">
        <ele>681</ele>
        <time>2026-02-18T15:38:01.000Z</time>
      </trkpt>
      <trkpt lat="43.64173" lon="6.24191">
        <ele>680</ele>
        <time>2026-02-18T15:38:10.000Z</time>
      </trkpt>
      <trkpt lat="43.64168" lon="6.24177">
        <ele>680</ele>
        <time>2026-02-18T15:38:19.000Z</time>
      </trkpt>
      <trkpt lat="43.64163" lon="6.24164">
        <ele>680</ele>
        <time>2026-02-18T15:38:28.000Z</time>
      </trkpt>
      <trkpt lat="43.6416" lon="6.24149">
        <ele>679</ele>
        <time>2026-02-18T15:38:37.000Z</time>
      </trkpt>
      <trkpt lat="43.64157" lon="6.24134">
        <ele>679</ele>
        <time>2026-02-18T15:38:46.000Z</time>
      </trkpt>
      <trkpt lat="43.64157" lon="6.2412">
        <ele>678</ele>
        <time>2026-02-18T15:38:55.000Z</time>
      </trkpt>
      <trkpt lat="43.6416" lon="6.24107">
        <ele>678</ele>
        <time>2026-02-18T15:39:04.000Z</time>
      </trkpt>
      <trkpt lat="43.64164" lon="6.24095">
        <ele>677</ele>
        <time>2026-02-18T15:39:13.000Z</time>
      </trkpt>
      <trkpt lat="43.64168" lon="6.24083">
        <ele>676</ele>
        <time>2026-02-18T15:39:22.000Z</time>
      </trkpt>
      <trkpt lat="43.64173" lon="6.24071">
        <ele>675</ele>
        <time>2026-02-18T15:39:31.000Z</time>
      </trkpt>
      <trkpt lat="43.64178" lon="6.24059">
        <ele>674</ele>
        <time>2026-02-18T15:39:40.000Z</time>
      </trkpt>
      <trkpt lat="43.64186" lon="6.24049">
        <ele>674</ele>
        <time>2026-02-18T15:39:49.000Z</time>
      </trkpt>
      <trkpt lat="43.64195" lon="6.24042">
        <ele>673</ele>
        <time>2026-02-18T15:39:58.000Z</time>
      </trkpt>
      <trkpt lat="43.64204" lon="6.24032">
        <ele>673</ele>
        <time>2026-02-18T15:40:07.000Z</time>
      </trkpt>
      <trkpt lat="43.64213" lon="6.24021">
        <ele>673</ele>
        <time>2026-02-18T15:40:16.000Z</time>
      </trkpt>
      <trkpt lat="43.64221" lon="6.24012">
        <ele>672</ele>
        <time>2026-02-18T15:40:25.000Z</time>
      </trkpt>
      <trkpt lat="43.64228" lon="6.24001">
        <ele>672</ele>
        <time>2026-02-18T15:40:34.000Z</time>
      </trkpt>
      <trkpt lat="43.64236" lon="6.23991">
        <ele>671</ele>
        <time>2026-02-18T15:40:43.000Z</time>
      </trkpt>
      <trkpt lat="43.64246" lon="6.23982">
        <ele>671</ele>
        <time>2026-02-18T15:40:52.000Z</time>
      </trkpt>
      <trkpt lat="43.64254" lon="6.23973">
        <ele>670</ele>
        <time>2026-02-18T15:41:01.000Z</time>
      </trkpt>
      <trkpt lat="43.64264" lon="6.23964">
        <ele>670</ele>
        <time>2026-02-18T15:41:10.000Z</time>
      </trkpt>
      <trkpt lat="43.64272" lon="6.23958">
        <ele>670</ele>
        <time>2026-02-18T15:41:16.000Z</time>
      </trkpt>
      <trkpt lat="43.64282" lon="6.23952">
        <ele>669</ele>
        <time>2026-02-18T15:41:25.000Z</time>
      </trkpt>
      <trkpt lat="43.64292" lon="6.23947">
        <ele>669</ele>
        <time>2026-02-18T15:41:34.000Z</time>
      </trkpt>
      <trkpt lat="43.643" lon="6.2394">
        <ele>668</ele>
        <time>2026-02-18T15:41:43.000Z</time>
      </trkpt>
      <trkpt lat="43.64308" lon="6.23932">
        <ele>667</ele>
        <time>2026-02-18T15:42:22.000Z</time>
      </trkpt>
      <trkpt lat="43.64314" lon="6.23923">
        <ele>666</ele>
        <time>2026-02-18T15:42:31.000Z</time>
      </trkpt>
      <trkpt lat="43.64321" lon="6.23913">
        <ele>666</ele>
        <time>2026-02-18T15:42:40.000Z</time>
      </trkpt>
      <trkpt lat="43.64325" lon="6.23902">
        <ele>665</ele>
        <time>2026-02-18T15:42:49.000Z</time>
      </trkpt>
      <trkpt lat="43.64332" lon="6.23891">
        <ele>665</ele>
        <time>2026-02-18T15:42:58.000Z</time>
      </trkpt>
      <trkpt lat="43.64339" lon="6.23881">
        <ele>664</ele>
        <time>2026-02-18T15:43:07.000Z</time>
      </trkpt>
      <trkpt lat="43.64348" lon="6.23874">
        <ele>663</ele>
        <time>2026-02-18T15:43:16.000Z</time>
      </trkpt>
      <trkpt lat="43.64357" lon="6.23867">
        <ele>663</ele>
        <time>2026-02-18T15:43:25.000Z</time>
      </trkpt>
      <trkpt lat="43.64366" lon="6.2386">
        <ele>662</ele>
        <time>2026-02-18T15:43:34.000Z</time>
      </trkpt>
      <trkpt lat="43.64374" lon="6.23851">
        <ele>662</ele>
        <time>2026-02-18T15:43:43.000Z</time>
      </trkpt>
      <trkpt lat="43.64381" lon="6.23841">
        <ele>661</ele>
        <time>2026-02-18T15:43:52.000Z</time>
      </trkpt>
      <trkpt lat="43.64389" lon="6.2383">
        <ele>661</ele>
        <time>2026-02-18T15:44:01.000Z</time>
      </trkpt>
      <trkpt lat="43.64397" lon="6.23823">
        <ele>661</ele>
        <time>2026-02-18T15:44:10.000Z</time>
      </trkpt>
      <trkpt lat="43.64405" lon="6.23819">
        <ele>661</ele>
        <time>2026-02-18T15:44:16.000Z</time>
      </trkpt>
      <trkpt lat="43.64413" lon="6.23812">
        <ele>661</ele>
        <time>2026-02-18T15:44:25.000Z</time>
      </trkpt>
      <trkpt lat="43.64423" lon="6.23806">
        <ele>660</ele>
        <time>2026-02-18T15:44:34.000Z</time>
      </trkpt>
      <trkpt lat="43.64435" lon="6.23803">
        <ele>660</ele>
        <time>2026-02-18T15:44:46.000Z</time>
      </trkpt>
      <trkpt lat="43.64447" lon="6.23804">
        <ele>660</ele>
        <time>2026-02-18T15:44:55.000Z</time>
      </trkpt>
      <trkpt lat="43.64457" lon="6.23808">
        <ele>659</ele>
        <time>2026-02-18T15:45:04.000Z</time>
      </trkpt>
      <trkpt lat="43.64466" lon="6.23811">
        <ele>659</ele>
        <time>2026-02-18T15:45:13.000Z</time>
      </trkpt>
      <trkpt lat="43.64475" lon="6.23809">
        <ele>658</ele>
        <time>2026-02-18T15:45:25.000Z</time>
      </trkpt>
      <trkpt lat="43.64482" lon="6.23801">
        <ele>657</ele>
        <time>2026-02-18T15:45:34.000Z</time>
      </trkpt>
      <trkpt lat="43.64486" lon="6.23788">
        <ele>657</ele>
        <time>2026-02-18T15:45:43.000Z</time>
      </trkpt>
      <trkpt lat="43.64489" lon="6.23775">
        <ele>655</ele>
        <time>2026-02-18T15:45:55.000Z</time>
      </trkpt>
      <trkpt lat="43.64484" lon="6.23764">
        <ele>654</ele>
        <time>2026-02-18T15:46:04.000Z</time>
      </trkpt>
      <trkpt lat="43.64477" lon="6.23755">
        <ele>654</ele>
        <time>2026-02-18T15:46:13.000Z</time>
      </trkpt>
      <trkpt lat="43.64469" lon="6.23746">
        <ele>653</ele>
        <time>2026-02-18T15:46:28.000Z</time>
      </trkpt>
      <trkpt lat="43.64466" lon="6.23733">
        <ele>653</ele>
        <time>2026-02-18T15:47:16.000Z</time>
      </trkpt>
      <trkpt lat="43.64459" lon="6.23726">
        <ele>653</ele>
        <time>2026-02-18T15:47:34.000Z</time>
      </trkpt>
      <trkpt lat="43.64451" lon="6.2372">
        <ele>653</ele>
        <time>2026-02-18T15:47:46.000Z</time>
      </trkpt>
      <trkpt lat="43.64442" lon="6.2371">
        <ele>653</ele>
        <time>2026-02-18T15:47:58.000Z</time>
      </trkpt>
      <trkpt lat="43.64434" lon="6.23701">
        <ele>653</ele>
        <time>2026-02-18T15:48:07.000Z</time>
      </trkpt>
      <trkpt lat="43.64425" lon="6.23696">
        <ele>653</ele>
        <time>2026-02-18T15:48:16.000Z</time>
      </trkpt>
      <trkpt lat="43.64415" lon="6.23694">
        <ele>653</ele>
        <time>2026-02-18T15:48:25.000Z</time>
      </trkpt>
      <trkpt lat="43.64404" lon="6.23692">
        <ele>653</ele>
        <time>2026-02-18T15:48:37.000Z</time>
      </trkpt>
      <trkpt lat="43.64394" lon="6.23688">
        <ele>653</ele>
        <time>2026-02-18T15:48:46.000Z</time>
      </trkpt>
      <trkpt lat="43.64385" lon="6.23684">
        <ele>653</ele>
        <time>2026-02-18T15:48:55.000Z</time>
      </trkpt>
      <trkpt lat="43.64376" lon="6.23679">
        <ele>654</ele>
        <time>2026-02-18T15:49:04.000Z</time>
      </trkpt>
      <trkpt lat="43.64367" lon="6.23675">
        <ele>654</ele>
        <time>2026-02-18T15:49:10.000Z</time>
      </trkpt>
      <trkpt lat="43.64357" lon="6.23671">
        <ele>654</ele>
        <time>2026-02-18T15:49:19.000Z</time>
      </trkpt>
      <trkpt lat="43.6435" lon="6.23663">
        <ele>654</ele>
        <time>2026-02-18T15:49:28.000Z</time>
      </trkpt>
      <trkpt lat="43.64343" lon="6.23651">
        <ele>654</ele>
        <time>2026-02-18T15:49:37.000Z</time>
      </trkpt>
      <trkpt lat="43.64337" lon="6.23638">
        <ele>654</ele>
        <time>2026-02-18T15:49:46.000Z</time>
      </trkpt>
      <trkpt lat="43.64333" lon="6.23624">
        <ele>654</ele>
        <time>2026-02-18T15:49:55.000Z</time>
      </trkpt>
      <trkpt lat="43.64329" lon="6.23611">
        <ele>654</ele>
        <time>2026-02-18T15:50:04.000Z</time>
      </trkpt>
      <trkpt lat="43.64328" lon="6.23596">
        <ele>655</ele>
        <time>2026-02-18T15:50:13.000Z</time>
      </trkpt>
      <trkpt lat="43.64325" lon="6.23583">
        <ele>655</ele>
        <time>2026-02-18T15:50:19.000Z</time>
      </trkpt>
      <trkpt lat="43.64322" lon="6.23567">
        <ele>656</ele>
        <time>2026-02-18T15:50:28.000Z</time>
      </trkpt>
      <trkpt lat="43.64321" lon="6.23554">
        <ele>656</ele>
        <time>2026-02-18T15:50:37.000Z</time>
      </trkpt>
      <trkpt lat="43.6432" lon="6.2354">
        <ele>657</ele>
        <time>2026-02-18T15:50:46.000Z</time>
      </trkpt>
      <trkpt lat="43.64318" lon="6.23525">
        <ele>657</ele>
        <time>2026-02-18T15:50:55.000Z</time>
      </trkpt>
      <trkpt lat="43.64316" lon="6.23511">
        <ele>658</ele>
        <time>2026-02-18T15:51:04.000Z</time>
      </trkpt>
      <trkpt lat="43.64313" lon="6.23497">
        <ele>659</ele>
        <time>2026-02-18T15:51:13.000Z</time>
      </trkpt>
      <trkpt lat="43.6431" lon="6.23485">
        <ele>660</ele>
        <time>2026-02-18T15:51:22.000Z</time>
      </trkpt>
      <trkpt lat="43.64308" lon="6.2347">
        <ele>660</ele>
        <time>2026-02-18T15:51:31.000Z</time>
      </trkpt>
      <trkpt lat="43.64305" lon="6.23457">
        <ele>661</ele>
        <time>2026-02-18T15:51:40.000Z</time>
      </trkpt>
      <trkpt lat="43.64305" lon="6.23442">
        <ele>662</ele>
        <time>2026-02-18T15:51:49.000Z</time>
      </trkpt>
      <trkpt lat="43.64304" lon="6.23426">
        <ele>662</ele>
        <time>2026-02-18T15:52:01.000Z</time>
      </trkpt>
      <trkpt lat="43.64304" lon="6.2341">
        <ele>663</ele>
        <time>2026-02-18T15:52:10.000Z</time>
      </trkpt>
      <trkpt lat="43.64302" lon="6.23397">
        <ele>663</ele>
        <time>2026-02-18T15:52:19.000Z</time>
      </trkpt>
      <trkpt lat="43.64299" lon="6.23383">
        <ele>663</ele>
        <time>2026-02-18T15:52:28.000Z</time>
      </trkpt>
      <trkpt lat="43.64294" lon="6.2337">
        <ele>663</ele>
        <time>2026-02-18T15:52:37.000Z</time>
      </trkpt>
      <trkpt lat="43.64289" lon="6.23357">
        <ele>664</ele>
        <time>2026-02-18T15:52:46.000Z</time>
      </trkpt>
      <trkpt lat="43.64284" lon="6.23346">
        <ele>664</ele>
        <time>2026-02-18T15:52:55.000Z</time>
      </trkpt>
      <trkpt lat="43.64278" lon="6.23336">
        <ele>664</ele>
        <time>2026-02-18T15:53:04.000Z</time>
      </trkpt>
      <trkpt lat="43.64272" lon="6.23324">
        <ele>664</ele>
        <time>2026-02-18T15:53:13.000Z</time>
      </trkpt>
      <trkpt lat="43.64263" lon="6.23314">
        <ele>664</ele>
        <time>2026-02-18T15:53:23.000Z</time>
      </trkpt>
      <trkpt lat="43.64253" lon="6.23307">
        <ele>664</ele>
        <time>2026-02-18T15:53:33.000Z</time>
      </trkpt>
      <trkpt lat="43.64244" lon="6.23304">
        <ele>665</ele>
        <time>2026-02-18T15:53:42.000Z</time>
      </trkpt>
      <trkpt lat="43.64234" lon="6.233">
        <ele>666</ele>
        <time>2026-02-18T15:53:51.000Z</time>
      </trkpt>
      <trkpt lat="43.64224" lon="6.23293">
        <ele>666</ele>
        <time>2026-02-18T15:54:00.000Z</time>
      </trkpt>
      <trkpt lat="43.64214" lon="6.23287">
        <ele>667</ele>
        <time>2026-02-18T15:54:09.000Z</time>
      </trkpt>
      <trkpt lat="43.64205" lon="6.23278">
        <ele>668</ele>
        <time>2026-02-18T15:54:18.000Z</time>
      </trkpt>
      <trkpt lat="43.64197" lon="6.23271">
        <ele>668</ele>
        <time>2026-02-18T15:54:27.000Z</time>
      </trkpt>
      <trkpt lat="43.64188" lon="6.23264">
        <ele>668</ele>
        <time>2026-02-18T15:54:33.000Z</time>
      </trkpt>
      <trkpt lat="43.6418" lon="6.23254">
        <ele>667</ele>
        <time>2026-02-18T15:54:42.000Z</time>
      </trkpt>
      <trkpt lat="43.64174" lon="6.23242">
        <ele>667</ele>
        <time>2026-02-18T15:54:51.000Z</time>
      </trkpt>
      <trkpt lat="43.64169" lon="6.23228">
        <ele>666</ele>
        <time>2026-02-18T15:55:03.000Z</time>
      </trkpt>
      <trkpt lat="43.64162" lon="6.23215">
        <ele>665</ele>
        <time>2026-02-18T15:55:12.000Z</time>
      </trkpt>
      <trkpt lat="43.64154" lon="6.23205">
        <ele>665</ele>
        <time>2026-02-18T15:55:21.000Z</time>
      </trkpt>
      <trkpt lat="43.64146" lon="6.23196">
        <ele>664</ele>
        <time>2026-02-18T15:55:30.000Z</time>
      </trkpt>
      <trkpt lat="43.64139" lon="6.23187">
        <ele>663</ele>
        <time>2026-02-18T15:55:36.000Z</time>
      </trkpt>
      <trkpt lat="43.64131" lon="6.23177">
        <ele>661</ele>
        <time>2026-02-18T15:55:45.000Z</time>
      </trkpt>
      <trkpt lat="43.64121" lon="6.23171">
        <ele>660</ele>
        <time>2026-02-18T15:55:54.000Z</time>
      </trkpt>
      <trkpt lat="43.6411" lon="6.23173">
        <ele>659</ele>
        <time>2026-02-18T15:56:03.000Z</time>
      </trkpt>
      <trkpt lat="43.64101" lon="6.23172">
        <ele>659</ele>
        <time>2026-02-18T15:56:09.000Z</time>
      </trkpt>
      <trkpt lat="43.64092" lon="6.23165">
        <ele>658</ele>
        <time>2026-02-18T15:56:18.000Z</time>
      </trkpt>
      <trkpt lat="43.64082" lon="6.23159">
        <ele>658</ele>
        <time>2026-02-18T15:56:27.000Z</time>
      </trkpt>
      <trkpt lat="43.64071" lon="6.23153">
        <ele>657</ele>
        <time>2026-02-18T15:56:36.000Z</time>
      </trkpt>
      <trkpt lat="43.64063" lon="6.23149">
        <ele>657</ele>
        <time>2026-02-18T15:56:42.000Z</time>
      </trkpt>
      <trkpt lat="43.64052" lon="6.23145">
        <ele>656</ele>
        <time>2026-02-18T15:56:51.000Z</time>
      </trkpt>
      <trkpt lat="43.64041" lon="6.23142">
        <ele>656</ele>
        <time>2026-02-18T15:57:00.000Z</time>
      </trkpt>
      <trkpt lat="43.64032" lon="6.23139">
        <ele>655</ele>
        <time>2026-02-18T15:57:06.000Z</time>
      </trkpt>
      <trkpt lat="43.64023" lon="6.23138">
        <ele>655</ele>
        <time>2026-02-18T15:57:15.000Z</time>
      </trkpt>
      <trkpt lat="43.64013" lon="6.23134">
        <ele>654</ele>
        <time>2026-02-18T15:57:24.000Z</time>
      </trkpt>
      <trkpt lat="43.64002" lon="6.2313">
        <ele>654</ele>
        <time>2026-02-18T15:57:36.000Z</time>
      </trkpt>
      <trkpt lat="43.63992" lon="6.23126">
        <ele>654</ele>
        <time>2026-02-18T15:57:45.000Z</time>
      </trkpt>
      <trkpt lat="43.63981" lon="6.23122">
        <ele>654</ele>
        <time>2026-02-18T15:57:54.000Z</time>
      </trkpt>
      <trkpt lat="43.63969" lon="6.23119">
        <ele>654</ele>
        <time>2026-02-18T15:58:03.000Z</time>
      </trkpt>
      <trkpt lat="43.6396" lon="6.23115">
        <ele>653</ele>
        <time>2026-02-18T15:58:09.000Z</time>
      </trkpt>
      <trkpt lat="43.63952" lon="6.23112">
        <ele>653</ele>
        <time>2026-02-18T15:58:15.000Z</time>
      </trkpt>
      <trkpt lat="43.63941" lon="6.23109">
        <ele>653</ele>
        <time>2026-02-18T15:58:24.000Z</time>
      </trkpt>
      <trkpt lat="43.6393" lon="6.23109">
        <ele>652</ele>
        <time>2026-02-18T15:58:33.000Z</time>
      </trkpt>
      <trkpt lat="43.63919" lon="6.23108">
        <ele>651</ele>
        <time>2026-02-18T15:58:42.000Z</time>
      </trkpt>
      <trkpt lat="43.63908" lon="6.23109">
        <ele>650</ele>
        <time>2026-02-18T15:58:51.000Z</time>
      </trkpt>
      <trkpt lat="43.63897" lon="6.23111">
        <ele>650</ele>
        <time>2026-02-18T15:59:00.000Z</time>
      </trkpt>
      <trkpt lat="43.63886" lon="6.23113">
        <ele>649</ele>
        <time>2026-02-18T15:59:09.000Z</time>
      </trkpt>
      <trkpt lat="43.63874" lon="6.23112">
        <ele>649</ele>
        <time>2026-02-18T15:59:18.000Z</time>
      </trkpt>
      <trkpt lat="43.63863" lon="6.2311">
        <ele>649</ele>
        <time>2026-02-18T15:59:27.000Z</time>
      </trkpt>
      <trkpt lat="43.63853" lon="6.23106">
        <ele>649</ele>
        <time>2026-02-18T15:59:36.000Z</time>
      </trkpt>
      <trkpt lat="43.63841" lon="6.23101">
        <ele>649</ele>
        <time>2026-02-18T15:59:45.000Z</time>
      </trkpt>
      <trkpt lat="43.6383" lon="6.23096">
        <ele>649</ele>
        <time>2026-02-18T15:59:54.000Z</time>
      </trkpt>
      <trkpt lat="43.63819" lon="6.23095">
        <ele>649</ele>
        <time>2026-02-18T16:00:03.000Z</time>
      </trkpt>
      <trkpt lat="43.63807" lon="6.23092">
        <ele>649</ele>
        <time>2026-02-18T16:00:12.000Z</time>
      </trkpt>
      <trkpt lat="43.63797" lon="6.23088">
        <ele>648</ele>
        <time>2026-02-18T16:00:21.000Z</time>
      </trkpt>
      <trkpt lat="43.63786" lon="6.23082">
        <ele>648</ele>
        <time>2026-02-18T16:00:30.000Z</time>
      </trkpt>
      <trkpt lat="43.63777" lon="6.23079">
        <ele>648</ele>
        <time>2026-02-18T16:00:36.000Z</time>
      </trkpt>
      <trkpt lat="43.63766" lon="6.23077">
        <ele>648</ele>
        <time>2026-02-18T16:00:45.000Z</time>
      </trkpt>
      <trkpt lat="43.63755" lon="6.23077">
        <ele>647</ele>
        <time>2026-02-18T16:00:54.000Z</time>
      </trkpt>
      <trkpt lat="43.63745" lon="6.23077">
        <ele>646</ele>
        <time>2026-02-18T16:01:03.000Z</time>
      </trkpt>
      <trkpt lat="43.63736" lon="6.23076">
        <ele>646</ele>
        <time>2026-02-18T16:01:09.000Z</time>
      </trkpt>
      <trkpt lat="43.63727" lon="6.23075">
        <ele>645</ele>
        <time>2026-02-18T16:01:18.000Z</time>
      </trkpt>
      <trkpt lat="43.63718" lon="6.23069">
        <ele>644</ele>
        <time>2026-02-18T16:01:27.000Z</time>
      </trkpt>
      <trkpt lat="43.6371" lon="6.23064">
        <ele>643</ele>
        <time>2026-02-18T16:01:33.000Z</time>
      </trkpt>
      <trkpt lat="43.63702" lon="6.23058">
        <ele>642</ele>
        <time>2026-02-18T16:01:39.000Z</time>
      </trkpt>
      <trkpt lat="43.63693" lon="6.23053">
        <ele>641</ele>
        <time>2026-02-18T16:01:48.000Z</time>
      </trkpt>
      <trkpt lat="43.63683" lon="6.23047">
        <ele>641</ele>
        <time>2026-02-18T16:01:57.000Z</time>
      </trkpt>
      <trkpt lat="43.63674" lon="6.23038">
        <ele>640</ele>
        <time>2026-02-18T16:02:06.000Z</time>
      </trkpt>
      <trkpt lat="43.63663" lon="6.23034">
        <ele>639</ele>
        <time>2026-02-18T16:02:15.000Z</time>
      </trkpt>
      <trkpt lat="43.63654" lon="6.23027">
        <ele>638</ele>
        <time>2026-02-18T16:02:24.000Z</time>
      </trkpt>
      <trkpt lat="43.63645" lon="6.23017">
        <ele>636</ele>
        <time>2026-02-18T16:02:33.000Z</time>
      </trkpt>
      <trkpt lat="43.63635" lon="6.23009">
        <ele>635</ele>
        <time>2026-02-18T16:02:43.000Z</time>
      </trkpt>
      <trkpt lat="43.63626" lon="6.23002">
        <ele>633</ele>
        <time>2026-02-18T16:02:52.000Z</time>
      </trkpt>
      <trkpt lat="43.63615" lon="6.22998">
        <ele>632</ele>
        <time>2026-02-18T16:03:01.000Z</time>
      </trkpt>
      <trkpt lat="43.63605" lon="6.22992">
        <ele>631</ele>
        <time>2026-02-18T16:03:13.000Z</time>
      </trkpt>
      <trkpt lat="43.63596" lon="6.22987">
        <ele>630</ele>
        <time>2026-02-18T16:03:19.000Z</time>
      </trkpt>
      <trkpt lat="43.63584" lon="6.22982">
        <ele>630</ele>
        <time>2026-02-18T16:03:28.000Z</time>
      </trkpt>
      <trkpt lat="43.63572" lon="6.22974">
        <ele>630</ele>
        <time>2026-02-18T16:03:39.000Z</time>
      </trkpt>
      <trkpt lat="43.63562" lon="6.22969">
        <ele>630</ele>
        <time>2026-02-18T16:03:45.000Z</time>
      </trkpt>
      <trkpt lat="43.63551" lon="6.22964">
        <ele>630</ele>
        <time>2026-02-18T16:03:54.000Z</time>
      </trkpt>
      <trkpt lat="43.63543" lon="6.22957">
        <ele>630</ele>
        <time>2026-02-18T16:04:00.000Z</time>
      </trkpt>
      <trkpt lat="43.63535" lon="6.22949">
        <ele>630</ele>
        <time>2026-02-18T16:04:09.000Z</time>
      </trkpt>
      <trkpt lat="43.63528" lon="6.22939">
        <ele>630</ele>
        <time>2026-02-18T16:04:15.000Z</time>
      </trkpt>
      <trkpt lat="43.63521" lon="6.22932">
        <ele>629</ele>
        <time>2026-02-18T16:04:24.000Z</time>
      </trkpt>
      <trkpt lat="43.63514" lon="6.22924">
        <ele>629</ele>
        <time>2026-02-18T16:04:30.000Z</time>
      </trkpt>
      <trkpt lat="43.63506" lon="6.22914">
        <ele>628</ele>
        <time>2026-02-18T16:04:39.000Z</time>
      </trkpt>
      <trkpt lat="43.63498" lon="6.22905">
        <ele>628</ele>
        <time>2026-02-18T16:04:48.000Z</time>
      </trkpt>
      <trkpt lat="43.63488" lon="6.22897">
        <ele>627</ele>
        <time>2026-02-18T16:04:57.000Z</time>
      </trkpt>
      <trkpt lat="43.6348" lon="6.22889">
        <ele>626</ele>
        <time>2026-02-18T16:05:06.000Z</time>
      </trkpt>
      <trkpt lat="43.63471" lon="6.22879">
        <ele>625</ele>
        <time>2026-02-18T16:05:15.000Z</time>
      </trkpt>
      <trkpt lat="43.63462" lon="6.22868">
        <ele>625</ele>
        <time>2026-02-18T16:05:24.000Z</time>
      </trkpt>
      <trkpt lat="43.63456" lon="6.22859">
        <ele>624</ele>
        <time>2026-02-18T16:05:33.000Z</time>
      </trkpt>
      <trkpt lat="43.63451" lon="6.2285">
        <ele>624</ele>
        <time>2026-02-18T16:05:39.000Z</time>
      </trkpt>
      <trkpt lat="43.63446" lon="6.2284">
        <ele>624</ele>
        <time>2026-02-18T16:05:45.000Z</time>
      </trkpt>
      <trkpt lat="43.6344" lon="6.2283">
        <ele>623</ele>
        <time>2026-02-18T16:05:51.000Z</time>
      </trkpt>
      <trkpt lat="43.63433" lon="6.2282">
        <ele>622</ele>
        <time>2026-02-18T16:06:00.000Z</time>
      </trkpt>
      <trkpt lat="43.63426" lon="6.22811">
        <ele>621</ele>
        <time>2026-02-18T16:06:09.000Z</time>
      </trkpt>
      <trkpt lat="43.63418" lon="6.22801">
        <ele>620</ele>
        <time>2026-02-18T16:06:18.000Z</time>
      </trkpt>
      <trkpt lat="43.63412" lon="6.22791">
        <ele>619</ele>
        <time>2026-02-18T16:06:27.000Z</time>
      </trkpt>
      <trkpt lat="43.63407" lon="6.22779">
        <ele>618</ele>
        <time>2026-02-18T16:06:36.000Z</time>
      </trkpt>
      <trkpt lat="43.63401" lon="6.22765">
        <ele>618</ele>
        <time>2026-02-18T16:06:45.000Z</time>
      </trkpt>
      <trkpt lat="43.63397" lon="6.2275">
        <ele>617</ele>
        <time>2026-02-18T16:06:55.000Z</time>
      </trkpt>
      <trkpt lat="43.63395" lon="6.22734">
        <ele>616</ele>
        <time>2026-02-18T16:07:04.000Z</time>
      </trkpt>
      <trkpt lat="43.63393" lon="6.22719">
        <ele>615</ele>
        <time>2026-02-18T16:07:13.000Z</time>
      </trkpt>
      <trkpt lat="43.63391" lon="6.22704">
        <ele>614</ele>
        <time>2026-02-18T16:07:22.000Z</time>
      </trkpt>
      <trkpt lat="43.63388" lon="6.22689">
        <ele>613</ele>
        <time>2026-02-18T16:07:31.000Z</time>
      </trkpt>
      <trkpt lat="43.63384" lon="6.22675">
        <ele>612</ele>
        <time>2026-02-18T16:07:40.000Z</time>
      </trkpt>
      <trkpt lat="43.63377" lon="6.22661">
        <ele>611</ele>
        <time>2026-02-18T16:07:49.000Z</time>
      </trkpt>
      <trkpt lat="43.63371" lon="6.22649">
        <ele>609</ele>
        <time>2026-02-18T16:07:58.000Z</time>
      </trkpt>
      <trkpt lat="43.63365" lon="6.22635">
        <ele>608</ele>
        <time>2026-02-18T16:08:07.000Z</time>
      </trkpt>
      <trkpt lat="43.63359" lon="6.22623">
        <ele>607</ele>
        <time>2026-02-18T16:08:16.000Z</time>
      </trkpt>
      <trkpt lat="43.63354" lon="6.22609">
        <ele>606</ele>
        <time>2026-02-18T16:08:25.000Z</time>
      </trkpt>
      <trkpt lat="43.63353" lon="6.22597">
        <ele>605</ele>
        <time>2026-02-18T16:08:34.000Z</time>
      </trkpt>
      <trkpt lat="43.63348" lon="6.22585">
        <ele>604</ele>
        <time>2026-02-18T16:08:43.000Z</time>
      </trkpt>
      <trkpt lat="43.63348" lon="6.22569">
        <ele>603</ele>
        <time>2026-02-18T16:08:52.000Z</time>
      </trkpt>
      <trkpt lat="43.63351" lon="6.22555">
        <ele>601</ele>
        <time>2026-02-18T16:09:01.000Z</time>
      </trkpt>
      <trkpt lat="43.63356" lon="6.22544">
        <ele>599</ele>
        <time>2026-02-18T16:09:10.000Z</time>
      </trkpt>
      <trkpt lat="43.63361" lon="6.22532">
        <ele>598</ele>
        <time>2026-02-18T16:09:19.000Z</time>
      </trkpt>
      <trkpt lat="43.63368" lon="6.22522">
        <ele>597</ele>
        <time>2026-02-18T16:09:28.000Z</time>
      </trkpt>
      <trkpt lat="43.63375" lon="6.22514">
        <ele>596</ele>
        <time>2026-02-18T16:09:37.000Z</time>
      </trkpt>
      <trkpt lat="43.63377" lon="6.22503">
        <ele>594</ele>
        <time>2026-02-18T16:09:49.000Z</time>
      </trkpt>
      <trkpt lat="43.63369" lon="6.22498">
        <ele>590</ele>
        <time>2026-02-18T16:11:37.000Z</time>
      </trkpt>
      <trkpt lat="43.63359" lon="6.22499">
        <ele>585</ele>
        <time>2026-02-18T16:11:55.000Z</time>
      </trkpt>
      <trkpt lat="43.6335" lon="6.22498">
        <ele>578</ele>
        <time>2026-02-18T16:12:10.000Z</time>
      </trkpt>
      <trkpt lat="43.63348" lon="6.22487">
        <ele>570</ele>
        <time>2026-02-18T16:12:31.000Z</time>
      </trkpt>
      <trkpt lat="43.63355" lon="6.22477">
        <ele>563</ele>
        <time>2026-02-18T16:12:40.000Z</time>
      </trkpt>
      <trkpt lat="43.63361" lon="6.22474">
        <ele>556</ele>
        <time>2026-02-18T16:12:55.000Z</time>
      </trkpt>
      <trkpt lat="43.63357" lon="6.22465">
        <ele>549</ele>
        <time>2026-02-18T16:13:28.000Z</time>
      </trkpt>
      <trkpt lat="43.63348" lon="6.22457">
        <ele>544</ele>
        <time>2026-02-18T16:13:34.000Z</time>
      </trkpt>
      <trkpt lat="43.63338" lon="6.22452">
        <ele>538</ele>
        <time>2026-02-18T16:13:40.000Z</time>
      </trkpt>
      <trkpt lat="43.63329" lon="6.22448">
        <ele>534</ele>
        <time>2026-02-18T16:13:52.000Z</time>
      </trkpt>
      <trkpt lat="43.63319" lon="6.22447">
        <ele>530</ele>
        <time>2026-02-18T16:14:01.000Z</time>
      </trkpt>
      <trkpt lat="43.6331" lon="6.22447">
        <ele>527</ele>
        <time>2026-02-18T16:14:10.000Z</time>
      </trkpt>
      <trkpt lat="43.633" lon="6.22444">
        <ele>524</ele>
        <time>2026-02-18T16:14:16.000Z</time>
      </trkpt>
      <trkpt lat="43.63291" lon="6.22441">
        <ele>522</ele>
        <time>2026-02-18T16:14:25.000Z</time>
      </trkpt>
      <trkpt lat="43.63282" lon="6.22441">
        <ele>521</ele>
        <time>2026-02-18T16:14:34.000Z</time>
      </trkpt>
      <trkpt lat="43.63272" lon="6.22442">
        <ele>520</ele>
        <time>2026-02-18T16:14:40.000Z</time>
      </trkpt>
      <trkpt lat="43.63263" lon="6.22444">
        <ele>519</ele>
        <time>2026-02-18T16:14:49.000Z</time>
      </trkpt>
      <trkpt lat="43.63254" lon="6.22447">
        <ele>518</ele>
        <time>2026-02-18T16:14:58.000Z</time>
      </trkpt>
      <trkpt lat="43.63244" lon="6.2245">
        <ele>517</ele>
        <time>2026-02-18T16:15:04.000Z</time>
      </trkpt>
      <trkpt lat="43.63234" lon="6.22457">
        <ele>517</ele>
        <time>2026-02-18T16:15:13.000Z</time>
      </trkpt>
      <trkpt lat="43.63224" lon="6.22465">
        <ele>516</ele>
        <time>2026-02-18T16:15:22.000Z</time>
      </trkpt>
      <trkpt lat="43.63213" lon="6.22469">
        <ele>516</ele>
        <time>2026-02-18T16:15:31.000Z</time>
      </trkpt>
      <trkpt lat="43.63203" lon="6.2247">
        <ele>515</ele>
        <time>2026-02-18T16:15:37.000Z</time>
      </trkpt>
      <trkpt lat="43.63192" lon="6.22471">
        <ele>515</ele>
        <time>2026-02-18T16:15:46.000Z</time>
      </trkpt>
      <trkpt lat="43.63182" lon="6.22471">
        <ele>515</ele>
        <time>2026-02-18T16:15:52.000Z</time>
      </trkpt>
      <trkpt lat="43.63172" lon="6.22474">
        <ele>516</ele>
        <time>2026-02-18T16:16:01.000Z</time>
      </trkpt>
      <trkpt lat="43.63164" lon="6.22482">
        <ele>517</ele>
        <time>2026-02-18T16:16:10.000Z</time>
      </trkpt>
      <trkpt lat="43.63153" lon="6.22492">
        <ele>518</ele>
        <time>2026-02-18T16:16:19.000Z</time>
      </trkpt>
      <trkpt lat="43.63142" lon="6.22496">
        <ele>519</ele>
        <time>2026-02-18T16:16:28.000Z</time>
      </trkpt>
      <trkpt lat="43.6313" lon="6.225">
        <ele>521</ele>
        <time>2026-02-18T16:16:40.000Z</time>
      </trkpt>
      <trkpt lat="43.63118" lon="6.22503">
        <ele>523</ele>
        <time>2026-02-18T16:16:49.000Z</time>
      </trkpt>
      <trkpt lat="43.63108" lon="6.22504">
        <ele>525</ele>
        <time>2026-02-18T16:16:55.000Z</time>
      </trkpt>
      <trkpt lat="43.63098" lon="6.22505">
        <ele>528</ele>
        <time>2026-02-18T16:17:01.000Z</time>
      </trkpt>
      <trkpt lat="43.63088" lon="6.22505">
        <ele>532</ele>
        <time>2026-02-18T16:17:07.000Z</time>
      </trkpt>
      <trkpt lat="43.63076" lon="6.22506">
        <ele>535</ele>
        <time>2026-02-18T16:17:14.000Z</time>
      </trkpt>
      <trkpt lat="43.63065" lon="6.22507">
        <ele>539</ele>
        <time>2026-02-18T16:17:23.000Z</time>
      </trkpt>
      <trkpt lat="43.63055" lon="6.22508">
        <ele>542</ele>
        <time>2026-02-18T16:17:29.000Z</time>
      </trkpt>
      <trkpt lat="43.63045" lon="6.22508">
        <ele>547</ele>
        <time>2026-02-18T16:17:35.000Z</time>
      </trkpt>
      <trkpt lat="43.63034" lon="6.22508">
        <ele>551</ele>
        <time>2026-02-18T16:17:44.000Z</time>
      </trkpt>
      <trkpt lat="43.63024" lon="6.22504">
        <ele>555</ele>
        <time>2026-02-18T16:17:53.000Z</time>
      </trkpt>
      <trkpt lat="43.63014" lon="6.22498">
        <ele>558</ele>
        <time>2026-02-18T16:17:59.000Z</time>
      </trkpt>
      <trkpt lat="43.63004" lon="6.22493">
        <ele>561</ele>
        <time>2026-02-18T16:18:05.000Z</time>
      </trkpt>
      <trkpt lat="43.62993" lon="6.22485">
        <ele>563</ele>
        <time>2026-02-18T16:18:14.000Z</time>
      </trkpt>
      <trkpt lat="43.62984" lon="6.22486">
        <ele>564</ele>
        <time>2026-02-18T16:18:20.000Z</time>
      </trkpt>
      <trkpt lat="43.62973" lon="6.22491">
        <ele>563</ele>
        <time>2026-02-18T16:18:29.000Z</time>
      </trkpt>
      <trkpt lat="43.62965" lon="6.22497">
        <ele>562</ele>
        <time>2026-02-18T16:18:38.000Z</time>
      </trkpt>
      <trkpt lat="43.62965" lon="6.22507">
        <ele>559</ele>
        <time>2026-02-18T16:18:47.000Z</time>
      </trkpt>
      <trkpt lat="43.62957" lon="6.22511">
        <ele>554</ele>
        <time>2026-02-18T16:18:59.000Z</time>
      </trkpt>
      <trkpt lat="43.62949" lon="6.2251">
        <ele>549</ele>
        <time>2026-02-18T16:19:05.000Z</time>
      </trkpt>
      <trkpt lat="43.62939" lon="6.22515">
        <ele>544</ele>
        <time>2026-02-18T16:19:17.000Z</time>
      </trkpt>
      <trkpt lat="43.6293" lon="6.22517">
        <ele>540</ele>
        <time>2026-02-18T16:19:29.000Z</time>
      </trkpt>
      <trkpt lat="43.6292" lon="6.22517">
        <ele>537</ele>
        <time>2026-02-18T16:19:47.000Z</time>
      </trkpt>
      <trkpt lat="43.6291" lon="6.22521">
        <ele>537</ele>
        <time>2026-02-18T16:19:59.000Z</time>
      </trkpt>
      <trkpt lat="43.62905" lon="6.22531">
        <ele>539</ele>
        <time>2026-02-18T16:20:08.000Z</time>
      </trkpt>
      <trkpt lat="43.62904" lon="6.22523">
        <ele>542</ele>
        <time>2026-02-18T16:21:05.000Z</time>
      </trkpt>
      <trkpt lat="43.62912" lon="6.22515">
        <ele>546</ele>
        <time>2026-02-18T16:21:44.000Z</time>
      </trkpt>
      <trkpt lat="43.6292" lon="6.2251">
        <ele>548</ele>
        <time>2026-02-18T16:21:56.000Z</time>
      </trkpt>
      <trkpt lat="43.62917" lon="6.22498">
        <ele>546</ele>
        <time>2026-02-18T16:22:08.000Z</time>
      </trkpt>
      <trkpt lat="43.62909" lon="6.22491">
        <ele>544</ele>
        <time>2026-02-18T16:22:17.000Z</time>
      </trkpt>
      <trkpt lat="43.62899" lon="6.22485">
        <ele>543</ele>
        <time>2026-02-18T16:22:26.000Z</time>
      </trkpt>
      <trkpt lat="43.62889" lon="6.22484">
        <ele>542</ele>
        <time>2026-02-18T16:22:32.000Z</time>
      </trkpt>
      <trkpt lat="43.6288" lon="6.22485">
        <ele>542</ele>
        <time>2026-02-18T16:22:44.000Z</time>
      </trkpt>
      <trkpt lat="43.62872" lon="6.22477">
        <ele>543</ele>
        <time>2026-02-18T16:22:57.000Z</time>
      </trkpt>
      <trkpt lat="43.62861" lon="6.2247">
        <ele>544</ele>
        <time>2026-02-18T16:23:02.000Z</time>
      </trkpt>
      <trkpt lat="43.62852" lon="6.2246">
        <ele>545</ele>
        <time>2026-02-18T16:23:15.000Z</time>
      </trkpt>
      <trkpt lat="43.62845" lon="6.22448">
        <ele>546</ele>
        <time>2026-02-18T16:23:24.000Z</time>
      </trkpt>
      <trkpt lat="43.6284" lon="6.22438">
        <ele>545</ele>
        <time>2026-02-18T16:23:32.000Z</time>
      </trkpt>
      <trkpt lat="43.62839" lon="6.22426">
        <ele>541</ele>
        <time>2026-02-18T16:23:41.000Z</time>
      </trkpt>
      <trkpt lat="43.62837" lon="6.22414">
        <ele>535</ele>
        <time>2026-02-18T16:23:56.000Z</time>
      </trkpt>
      <trkpt lat="43.62832" lon="6.22403">
        <ele>529</ele>
        <time>2026-02-18T16:24:05.000Z</time>
      </trkpt>
      <trkpt lat="43.62823" lon="6.224">
        <ele>524</ele>
        <time>2026-02-18T16:24:35.000Z</time>
      </trkpt>
      <trkpt lat="43.62812" lon="6.22399">
        <ele>520</ele>
        <time>2026-02-18T16:24:50.000Z</time>
      </trkpt>
      <trkpt lat="43.62802" lon="6.22401">
        <ele>519</ele>
        <time>2026-02-18T16:25:14.000Z</time>
      </trkpt>
      <trkpt lat="43.6279" lon="6.22401">
        <ele>519</ele>
        <time>2026-02-18T16:25:29.000Z</time>
      </trkpt>
      <trkpt lat="43.62781" lon="6.22407">
        <ele>520</ele>
        <time>2026-02-18T16:25:38.000Z</time>
      </trkpt>
      <trkpt lat="43.62772" lon="6.22408">
        <ele>521</ele>
        <time>2026-02-18T16:25:44.000Z</time>
      </trkpt>
      <trkpt lat="43.62761" lon="6.22407">
        <ele>524</ele>
        <time>2026-02-18T16:25:50.000Z</time>
      </trkpt>
      <trkpt lat="43.62751" lon="6.22407">
        <ele>526</ele>
        <time>2026-02-18T16:25:56.000Z</time>
      </trkpt>
      <trkpt lat="43.62742" lon="6.22411">
        <ele>529</ele>
        <time>2026-02-18T16:26:02.000Z</time>
      </trkpt>
      <trkpt lat="43.62733" lon="6.22414">
        <ele>531</ele>
        <time>2026-02-18T16:26:08.000Z</time>
      </trkpt>
      <trkpt lat="43.62723" lon="6.22419">
        <ele>533</ele>
        <time>2026-02-18T16:26:17.000Z</time>
      </trkpt>
      <trkpt lat="43.62716" lon="6.22428">
        <ele>535</ele>
        <time>2026-02-18T16:26:23.000Z</time>
      </trkpt>
      <trkpt lat="43.62707" lon="6.22437">
        <ele>537</ele>
        <time>2026-02-18T16:26:35.000Z</time>
      </trkpt>
      <trkpt lat="43.62696" lon="6.22441">
        <ele>539</ele>
        <time>2026-02-18T16:26:41.000Z</time>
      </trkpt>
      <trkpt lat="43.62688" lon="6.22453">
        <ele>540</ele>
        <time>2026-02-18T16:26:53.000Z</time>
      </trkpt>
      <trkpt lat="43.62685" lon="6.22465">
        <ele>540</ele>
        <time>2026-02-18T16:26:59.000Z</time>
      </trkpt>
      <trkpt lat="43.62681" lon="6.22477">
        <ele>540</ele>
        <time>2026-02-18T16:27:17.000Z</time>
      </trkpt>
      <trkpt lat="43.62673" lon="6.22486">
        <ele>540</ele>
        <time>2026-02-18T16:27:29.000Z</time>
      </trkpt>
      <trkpt lat="43.62664" lon="6.22492">
        <ele>541</ele>
        <time>2026-02-18T16:27:38.000Z</time>
      </trkpt>
      <trkpt lat="43.62655" lon="6.225">
        <ele>542</ele>
        <time>2026-02-18T16:27:47.000Z</time>
      </trkpt>
      <trkpt lat="43.62649" lon="6.2251">
        <ele>539</ele>
        <time>2026-02-18T16:27:56.000Z</time>
      </trkpt>
      <trkpt lat="43.62639" lon="6.22518">
        <ele>542</ele>
        <time>2026-02-18T16:28:08.000Z</time>
      </trkpt>
    </trkseg>
  </trk>
</gpx>